<?xml version="1.0" encoding="UTF-8" standalone="no" ?>
<gpx xmlns="http://www.topografix.com/GPX/1/1" xmlns:xsi="http://www.w3.org/2001/XMLSchema-instance" xsi:schemaLocation="http://www.topografix.com/GPX/1/1 http://www.topografix.com/GPX/1/1/gpx.xsd" version="1.1" creator="VisuGPX - https://www.visugpx.com">
  <metadata>
    <name>Col-des Palomières</name>
  </metadata>
  <trk>
    <name><![CDATA[Col-des Palomières]]></name>
    <trkseg>
      <trkpt lat="43.03199" lon="0.32094">
        <ele>463.548303</ele>
        <time>2021-09-03T17:37:09.521Z</time>
      </trkpt>
      <trkpt lat="43.03217" lon="0.32028">
        <ele>463.548303</ele>
        <time>2021-09-03T17:37:23.195Z</time>
      </trkpt>
      <trkpt lat="43.03194" lon="0.31992">
        <ele>463.548303</ele>
        <time>2021-09-03T17:37:32.518Z</time>
      </trkpt>
      <trkpt lat="43.03186" lon="0.31985">
        <ele>463.498552</ele>
        <time>2021-09-03T17:37:34.643Z</time>
      </trkpt>
      <trkpt lat="43.03187" lon="0.31975">
        <ele>463.438014</ele>
        <time>2021-09-03T17:37:36.357Z</time>
      </trkpt>
      <trkpt lat="43.03185" lon="0.3194">
        <ele>463.222789</ele>
        <time>2021-09-03T17:37:41.303Z</time>
      </trkpt>
      <trkpt lat="43.03184" lon="0.31924">
        <ele>463.124918</ele>
        <time>2021-09-03T17:37:43.835Z</time>
      </trkpt>
      <trkpt lat="43.03177" lon="0.31823">
        <ele>462.508434</ele>
        <time>2021-09-03T17:37:58.400Z</time>
      </trkpt>
      <trkpt lat="43.03211" lon="0.31643">
        <ele>460.785673</ele>
        <time>2021-09-03T17:38:25.232Z</time>
      </trkpt>
      <trkpt lat="43.0322" lon="0.3155">
        <ele>459.710787</ele>
        <time>2021-09-03T17:38:37.185Z</time>
      </trkpt>
      <trkpt lat="43.03222" lon="0.31444">
        <ele>458.174428</ele>
        <time>2021-09-03T17:38:50.640Z</time>
      </trkpt>
      <trkpt lat="43.03217" lon="0.31381">
        <ele>457.143392</ele>
        <time>2021-09-03T17:38:58.615Z</time>
      </trkpt>
      <trkpt lat="43.03214" lon="0.31356">
        <ele>456.726135</ele>
        <time>2021-09-03T17:39:01.556Z</time>
      </trkpt>
      <trkpt lat="43.03215" lon="0.31344">
        <ele>456.528579</ele>
        <time>2021-09-03T17:39:03.459Z</time>
      </trkpt>
      <trkpt lat="43.03224" lon="0.31317">
        <ele>456.031279</ele>
        <time>2021-09-03T17:39:07.075Z</time>
      </trkpt>
      <trkpt lat="43.03233" lon="0.31303">
        <ele>455.72572</ele>
        <time>2021-09-03T17:39:09.687Z</time>
      </trkpt>
      <trkpt lat="43.03261" lon="0.31284">
        <ele>455.127956</ele>
        <time>2021-09-03T17:39:15.035Z</time>
      </trkpt>
      <trkpt lat="43.03264" lon="0.31269">
        <ele>455.020804</ele>
        <time>2021-09-03T17:39:17.378Z</time>
      </trkpt>
      <trkpt lat="43.03258" lon="0.31222">
        <ele>454.690473</ele>
        <time>2021-09-03T17:39:23.677Z</time>
      </trkpt>
      <trkpt lat="43.03254" lon="0.31208">
        <ele>454.593254</ele>
        <time>2021-09-03T17:39:25.323Z</time>
      </trkpt>
      <trkpt lat="43.0322" lon="0.31124">
        <ele>453.93197</ele>
        <time>2021-09-03T17:39:39.401Z</time>
      </trkpt>
      <trkpt lat="43.03199" lon="0.31022">
        <ele>454.059348</ele>
        <time>2021-09-03T17:39:56.951Z</time>
      </trkpt>
      <trkpt lat="43.03193" lon="0.30976">
        <ele>454.632046</ele>
        <time>2021-09-03T17:40:06.234Z</time>
      </trkpt>
      <trkpt lat="43.03192" lon="0.30966">
        <ele>454.762081</ele>
        <time>2021-09-03T17:40:08.542Z</time>
      </trkpt>
      <trkpt lat="43.03188" lon="0.30928">
        <ele>455.22931</ele>
        <time>2021-09-03T17:40:16.574Z</time>
      </trkpt>
      <trkpt lat="43.0318" lon="0.30862">
        <ele>456.041207</ele>
        <time>2021-09-03T17:40:31.902Z</time>
      </trkpt>
      <trkpt lat="43.03182" lon="0.30833">
        <ele>456.398652</ele>
        <time>2021-09-03T17:40:38.898Z</time>
      </trkpt>
      <trkpt lat="43.0321" lon="0.3077">
        <ele>457.852501</ele>
        <time>2021-09-03T17:40:57.788Z</time>
      </trkpt>
      <trkpt lat="43.03226" lon="0.30627">
        <ele>460.87189</ele>
        <time>2021-09-03T17:41:35.443Z</time>
      </trkpt>
      <trkpt lat="43.03227" lon="0.30474">
        <ele>461.5884</ele>
        <time>2021-09-03T17:42:07.585Z</time>
      </trkpt>
      <trkpt lat="43.0322" lon="0.30435">
        <ele>461.567533</ele>
        <time>2021-09-03T17:42:13.162Z</time>
      </trkpt>
      <trkpt lat="43.03201" lon="0.30402">
        <ele>461.545654</ele>
        <time>2021-09-03T17:42:18.663Z</time>
      </trkpt>
      <trkpt lat="43.03192" lon="0.30393">
        <ele>461.537258</ele>
        <time>2021-09-03T17:42:21.562Z</time>
      </trkpt>
      <trkpt lat="43.03199" lon="0.30375">
        <ele>461.526376</ele>
        <time>2021-09-03T17:42:23.878Z</time>
      </trkpt>
      <trkpt lat="43.03218" lon="0.30349">
        <ele>461.257014</ele>
        <time>2021-09-03T17:42:28.650Z</time>
      </trkpt>
      <trkpt lat="43.03267" lon="0.3031">
        <ele>460.451634</ele>
        <time>2021-09-03T17:42:38.413Z</time>
      </trkpt>
      <trkpt lat="43.03289" lon="0.30309">
        <ele>460.14007</ele>
        <time>2021-09-03T17:42:42.093Z</time>
      </trkpt>
      <trkpt lat="43.03335" lon="0.30325">
        <ele>459.472736</ele>
        <time>2021-09-03T17:42:50.657Z</time>
      </trkpt>
      <trkpt lat="43.03339" lon="0.30326">
        <ele>459.414929</ele>
        <time>2021-09-03T17:42:51.454Z</time>
      </trkpt>
      <trkpt lat="43.03349" lon="0.30326">
        <ele>459.275299</ele>
        <time>2021-09-03T17:42:53.967Z</time>
      </trkpt>
      <trkpt lat="43.03369" lon="0.30321">
        <ele>458.99317</ele>
        <time>2021-09-03T17:42:59.051Z</time>
      </trkpt>
      <trkpt lat="43.03407" lon="0.30296">
        <ele>459.711013</ele>
        <time>2021-09-03T17:43:10.519Z</time>
      </trkpt>
      <trkpt lat="43.03421" lon="0.30296">
        <ele>459.953222</ele>
        <time>2021-09-03T17:43:14.712Z</time>
      </trkpt>
      <trkpt lat="43.03443" lon="0.30304">
        <ele>460.344367</ele>
        <time>2021-09-03T17:43:21.724Z</time>
      </trkpt>
      <trkpt lat="43.03456" lon="0.30307">
        <ele>460.56971</ele>
        <time>2021-09-03T17:43:25.898Z</time>
      </trkpt>
      <trkpt lat="43.03468" lon="0.30302">
        <ele>460.800355</ele>
        <time>2021-09-03T17:43:30.307Z</time>
      </trkpt>
      <trkpt lat="43.03471" lon="0.30297">
        <ele>460.882305</ele>
        <time>2021-09-03T17:43:31.991Z</time>
      </trkpt>
      <trkpt lat="43.03479" lon="0.30296">
        <ele>461.011917</ele>
        <time>2021-09-03T17:43:34.856Z</time>
      </trkpt>
      <trkpt lat="43.03502" lon="0.30274">
        <ele>461.487415</ele>
        <time>2021-09-03T17:43:43.100Z</time>
      </trkpt>
      <trkpt lat="43.03537" lon="0.30214">
        <ele>462.180474</ele>
        <time>2021-09-03T17:44:00.231Z</time>
      </trkpt>
      <trkpt lat="43.03547" lon="0.30182">
        <ele>462.282851</ele>
        <time>2021-09-03T17:44:07.442Z</time>
      </trkpt>
      <trkpt lat="43.03558" lon="0.30117">
        <ele>462.476203</ele>
        <time>2021-09-03T17:44:19.782Z</time>
      </trkpt>
      <trkpt lat="43.03561" lon="0.30109">
        <ele>462.501994</ele>
        <time>2021-09-03T17:44:21.380Z</time>
      </trkpt>
      <trkpt lat="43.03567" lon="0.30101">
        <ele>462.534699</ele>
        <time>2021-09-03T17:44:22.666Z</time>
      </trkpt>
      <trkpt lat="43.03616" lon="0.30068">
        <ele>462.751798</ele>
        <time>2021-09-03T17:44:34.365Z</time>
      </trkpt>
      <trkpt lat="43.03664" lon="0.30047">
        <ele>462.9718</ele>
        <time>2021-09-03T17:44:44.330Z</time>
      </trkpt>
      <trkpt lat="43.03681" lon="0.30029">
        <ele>463.068362</ele>
        <time>2021-09-03T17:44:49.171Z</time>
      </trkpt>
      <trkpt lat="43.03697" lon="0.29995">
        <ele>463.201634</ele>
        <time>2021-09-03T17:44:55.164Z</time>
      </trkpt>
      <trkpt lat="43.03715" lon="0.29969">
        <ele>463.321332</ele>
        <time>2021-09-03T17:45:02.145Z</time>
      </trkpt>
      <trkpt lat="43.03788" lon="0.29929">
        <ele>463.735923</ele>
        <time>2021-09-03T17:45:23.819Z</time>
      </trkpt>
      <trkpt lat="43.03813" lon="0.29913">
        <ele>463.991064</ele>
        <time>2021-09-03T17:45:31.778Z</time>
      </trkpt>
      <trkpt lat="43.03841" lon="0.29895">
        <ele>464.282533</ele>
        <time>2021-09-03T17:45:40.687Z</time>
      </trkpt>
      <trkpt lat="43.03897" lon="0.29866">
        <ele>464.8465</ele>
        <time>2021-09-03T17:45:57.030Z</time>
      </trkpt>
      <trkpt lat="43.0393" lon="0.29837">
        <ele>465.211685</ele>
        <time>2021-09-03T17:46:06.799Z</time>
      </trkpt>
      <trkpt lat="43.03959" lon="0.29814">
        <ele>464.890375</ele>
        <time>2021-09-03T17:46:13.987Z</time>
      </trkpt>
      <trkpt lat="43.04064" lon="0.29776">
        <ele>462.950611</ele>
        <time>2021-09-03T17:46:33.682Z</time>
      </trkpt>
      <trkpt lat="43.04114" lon="0.297">
        <ele>461.301142</ele>
        <time>2021-09-03T17:46:45.619Z</time>
      </trkpt>
      <trkpt lat="43.0414" lon="0.29671">
        <ele>460.293196</ele>
        <time>2021-09-03T17:46:50.911Z</time>
      </trkpt>
      <trkpt lat="43.04168" lon="0.29666">
        <ele>459.457867</ele>
        <time>2021-09-03T17:46:55.362Z</time>
      </trkpt>
      <trkpt lat="43.04233" lon="0.29686">
        <ele>457.459675</ele>
        <time>2021-09-03T17:47:06.206Z</time>
      </trkpt>
      <trkpt lat="43.04255" lon="0.29686">
        <ele>456.808358</ele>
        <time>2021-09-03T17:47:09.817Z</time>
      </trkpt>
      <trkpt lat="43.04258" lon="0.2968">
        <ele>456.741049</ele>
        <time>2021-09-03T17:47:11.090Z</time>
      </trkpt>
      <trkpt lat="43.04296" lon="0.29655">
        <ele>457.623982</ele>
        <time>2021-09-03T17:47:19.395Z</time>
      </trkpt>
      <trkpt lat="43.04354" lon="0.2965">
        <ele>458.856716</ele>
        <time>2021-09-03T17:47:34.990Z</time>
      </trkpt>
      <trkpt lat="43.04365" lon="0.29645">
        <ele>459.085893</ele>
        <time>2021-09-03T17:47:38.703Z</time>
      </trkpt>
      <trkpt lat="43.04359" lon="0.29621">
        <ele>459.473027</ele>
        <time>2021-09-03T17:47:46.411Z</time>
      </trkpt>
      <trkpt lat="43.04342" lon="0.2952">
        <ele>462.213611</ele>
        <time>2021-09-03T17:48:21.965Z</time>
      </trkpt>
      <trkpt lat="43.04336" lon="0.29493">
        <ele>463.467046</ele>
        <time>2021-09-03T17:48:31.631Z</time>
      </trkpt>
      <trkpt lat="43.04331" lon="0.29477">
        <ele>464.279903</ele>
        <time>2021-09-03T17:48:41.756Z</time>
      </trkpt>
      <trkpt lat="43.04321" lon="0.29437">
        <ele>466.150351</ele>
        <time>2021-09-03T17:48:59.296Z</time>
      </trkpt>
      <trkpt lat="43.04323" lon="0.29369">
        <ele>469.187379</ele>
        <time>2021-09-03T17:49:25.529Z</time>
      </trkpt>
      <trkpt lat="43.04318" lon="0.29292">
        <ele>470.425879</ele>
        <time>2021-09-03T17:49:45.434Z</time>
      </trkpt>
      <trkpt lat="43.04316" lon="0.29265">
        <ele>469.281528</ele>
        <time>2021-09-03T17:49:53.370Z</time>
      </trkpt>
      <trkpt lat="43.04321" lon="0.29218">
        <ele>467.258115</ele>
        <time>2021-09-03T17:49:59.518Z</time>
      </trkpt>
      <trkpt lat="43.04348" lon="0.2908">
        <ele>461.219604</ele>
        <time>2021-09-03T17:50:14.687Z</time>
      </trkpt>
      <trkpt lat="43.04361" lon="0.29049">
        <ele>458.001535</ele>
        <time>2021-09-03T17:50:18.151Z</time>
      </trkpt>
      <trkpt lat="43.04368" lon="0.2905">
        <ele>457.049473</ele>
        <time>2021-09-03T17:50:19.163Z</time>
      </trkpt>
      <trkpt lat="43.04379" lon="0.29073">
        <ele>454.538549</ele>
        <time>2021-09-03T17:50:21.759Z</time>
      </trkpt>
      <trkpt lat="43.04387" lon="0.29066">
        <ele>453.365169</ele>
        <time>2021-09-03T17:50:23.003Z</time>
      </trkpt>
      <trkpt lat="43.04388" lon="0.29036">
        <ele>450.546009</ele>
        <time>2021-09-03T17:50:25.990Z</time>
      </trkpt>
      <trkpt lat="43.04395" lon="0.29035">
        <ele>449.647751</ele>
        <time>2021-09-03T17:50:26.935Z</time>
      </trkpt>
      <trkpt lat="43.04424" lon="0.29058">
        <ele>445.330941</ele>
        <time>2021-09-03T17:50:31.557Z</time>
      </trkpt>
      <trkpt lat="43.0443" lon="0.29052">
        <ele>444.342221</ele>
        <time>2021-09-03T17:50:32.638Z</time>
      </trkpt>
      <trkpt lat="43.04429" lon="0.29038">
        <ele>442.980651</ele>
        <time>2021-09-03T17:50:34.194Z</time>
      </trkpt>
      <trkpt lat="43.04429" lon="0.29015">
        <ele>440.807715</ele>
        <time>2021-09-03T17:50:36.527Z</time>
      </trkpt>
      <trkpt lat="43.04432" lon="0.28999">
        <ele>439.301375</ele>
        <time>2021-09-03T17:50:38.240Z</time>
      </trkpt>
      <trkpt lat="43.04434" lon="0.28988">
        <ele>438.172671</ele>
        <time>2021-09-03T17:50:39.552Z</time>
      </trkpt>
      <trkpt lat="43.04433" lon="0.28981">
        <ele>437.98895</ele>
        <time>2021-09-03T17:50:40.213Z</time>
      </trkpt>
      <trkpt lat="43.04426" lon="0.28971">
        <ele>437.763237</ele>
        <time>2021-09-03T17:50:41.663Z</time>
      </trkpt>
      <trkpt lat="43.04424" lon="0.2897">
        <ele>437.720085</ele>
        <time>2021-09-03T17:50:41.951Z</time>
      </trkpt>
      <trkpt lat="43.04395" lon="0.28952">
        <ele>437.019706</ele>
        <time>2021-09-03T17:50:46.844Z</time>
      </trkpt>
      <trkpt lat="43.04299" lon="0.28873">
        <ele>434.563172</ele>
        <time>2021-09-03T17:51:09.676Z</time>
      </trkpt>
      <trkpt lat="43.04299" lon="0.2886">
        <ele>434.362899</ele>
        <time>2021-09-03T17:51:13.576Z</time>
      </trkpt>
      <trkpt lat="43.04306" lon="0.28855">
        <ele>434.188545</ele>
        <time>2021-09-03T17:51:16.773Z</time>
      </trkpt>
      <trkpt lat="43.04359" lon="0.28844">
        <ele>436.777645</ele>
        <time>2021-09-03T17:51:38.481Z</time>
      </trkpt>
      <trkpt lat="43.04363" lon="0.28839">
        <ele>437.077792</ele>
        <time>2021-09-03T17:51:41.027Z</time>
      </trkpt>
      <trkpt lat="43.04361" lon="0.28832">
        <ele>437.359122</ele>
        <time>2021-09-03T17:51:43.343Z</time>
      </trkpt>
      <trkpt lat="43.04267" lon="0.28778">
        <ele>442.586711</ele>
        <time>2021-09-03T17:52:30.341Z</time>
      </trkpt>
      <trkpt lat="43.04259" lon="0.28765">
        <ele>443.245889</ele>
        <time>2021-09-03T17:52:36.138Z</time>
      </trkpt>
      <trkpt lat="43.04254" lon="0.28756">
        <ele>443.807295</ele>
        <time>2021-09-03T17:52:40.899Z</time>
      </trkpt>
      <trkpt lat="43.04238" lon="0.28742">
        <ele>445.264836</ele>
        <time>2021-09-03T17:52:50.052Z</time>
      </trkpt>
      <trkpt lat="43.04166" lon="0.28624">
        <ele>454.146137</ele>
        <time>2021-09-03T17:53:51.961Z</time>
      </trkpt>
      <trkpt lat="43.04134" lon="0.28512">
        <ele>460.485772</ele>
        <time>2021-09-03T17:54:41.809Z</time>
      </trkpt>
      <trkpt lat="43.04031" lon="0.28353">
        <ele>469.986275</ele>
        <time>2021-09-03T17:55:55.142Z</time>
      </trkpt>
      <trkpt lat="43.04012" lon="0.28307">
        <ele>470.934429</ele>
        <time>2021-09-03T17:56:08.661Z</time>
      </trkpt>
      <trkpt lat="43.04002" lon="0.28294">
        <ele>471.258157</ele>
        <time>2021-09-03T17:56:12.943Z</time>
      </trkpt>
      <trkpt lat="43.03963" lon="0.28282">
        <ele>472.214577</ele>
        <time>2021-09-03T17:56:24.668Z</time>
      </trkpt>
      <trkpt lat="43.0393" lon="0.28266">
        <ele>473.06408</ele>
        <time>2021-09-03T17:56:34.151Z</time>
      </trkpt>
      <trkpt lat="43.03904" lon="0.28238">
        <ele>473.871203</ele>
        <time>2021-09-03T17:56:42.462Z</time>
      </trkpt>
      <trkpt lat="43.03883" lon="0.28196">
        <ele>474.437835</ele>
        <time>2021-09-03T17:56:50.967Z</time>
      </trkpt>
      <trkpt lat="43.03889" lon="0.28173">
        <ele>474.715274</ele>
        <time>2021-09-03T17:56:55.077Z</time>
      </trkpt>
      <trkpt lat="43.03904" lon="0.2814">
        <ele>475.141483</ele>
        <time>2021-09-03T17:57:01.624Z</time>
      </trkpt>
      <trkpt lat="43.03911" lon="0.28118">
        <ele>475.41553</ele>
        <time>2021-09-03T17:57:06.140Z</time>
      </trkpt>
      <trkpt lat="43.03917" lon="0.28072">
        <ele>475.944352</ele>
        <time>2021-09-03T17:57:16.086Z</time>
      </trkpt>
      <trkpt lat="43.03918" lon="0.27997">
        <ele>477.168564</ele>
        <time>2021-09-03T17:57:34.583Z</time>
      </trkpt>
      <trkpt lat="43.03933" lon="0.27954">
        <ele>479.020032</ele>
        <time>2021-09-03T17:57:49.134Z</time>
      </trkpt>
      <trkpt lat="43.03951" lon="0.27922">
        <ele>480.578101</ele>
        <time>2021-09-03T17:58:01.735Z</time>
      </trkpt>
      <trkpt lat="43.03974" lon="0.2789">
        <ele>482.309814</ele>
        <time>2021-09-03T17:58:16.414Z</time>
      </trkpt>
      <trkpt lat="43.03984" lon="0.27887">
        <ele>482.846305</ele>
        <time>2021-09-03T17:58:21.005Z</time>
      </trkpt>
      <trkpt lat="43.03998" lon="0.27889">
        <ele>483.598684</ele>
        <time>2021-09-03T17:58:27.228Z</time>
      </trkpt>
      <trkpt lat="43.04022" lon="0.27915">
        <ele>485.205603</ele>
        <time>2021-09-03T17:58:41.259Z</time>
      </trkpt>
      <trkpt lat="43.04028" lon="0.27917">
        <ele>485.501488</ele>
        <time>2021-09-03T17:58:44.288Z</time>
      </trkpt>
      <trkpt lat="43.04033" lon="0.27916">
        <ele>485.804371</ele>
        <time>2021-09-03T17:58:47.974Z</time>
      </trkpt>
      <trkpt lat="43.04069" lon="0.27884">
        <ele>488.454385</ele>
        <time>2021-09-03T17:59:08.361Z</time>
      </trkpt>
      <trkpt lat="43.04087" lon="0.27839">
        <ele>490.836434</ele>
        <time>2021-09-03T17:59:27.223Z</time>
      </trkpt>
      <trkpt lat="43.04108" lon="0.27807">
        <ele>492.867494</ele>
        <time>2021-09-03T17:59:42.927Z</time>
      </trkpt>
      <trkpt lat="43.04122" lon="0.27773">
        <ele>494.627463</ele>
        <time>2021-09-03T17:59:55.710Z</time>
      </trkpt>
      <trkpt lat="43.04132" lon="0.27737">
        <ele>496.448367</ele>
        <time>2021-09-03T18:00:08.949Z</time>
      </trkpt>
      <trkpt lat="43.04141" lon="0.27652">
        <ele>500.512031</ele>
        <time>2021-09-03T18:00:37.051Z</time>
      </trkpt>
      <trkpt lat="43.0414" lon="0.27633">
        <ele>501.414669</ele>
        <time>2021-09-03T18:00:43.375Z</time>
      </trkpt>
      <trkpt lat="43.04133" lon="0.27622">
        <ele>502.100094</ele>
        <time>2021-09-03T18:00:48.293Z</time>
      </trkpt>
      <trkpt lat="43.04116" lon="0.27615">
        <ele>503.260164</ele>
        <time>2021-09-03T18:00:56.592Z</time>
      </trkpt>
      <trkpt lat="43.04085" lon="0.27624">
        <ele>505.326325</ele>
        <time>2021-09-03T18:01:11.541Z</time>
      </trkpt>
      <trkpt lat="43.04071" lon="0.27619">
        <ele>506.286128</ele>
        <time>2021-09-03T18:01:18.682Z</time>
      </trkpt>
      <trkpt lat="43.04004" lon="0.27534">
        <ele>513.54615</ele>
        <time>2021-09-03T18:02:07.211Z</time>
      </trkpt>
      <trkpt lat="43.03965" lon="0.27516">
        <ele>517.288069</ele>
        <time>2021-09-03T18:02:30.712Z</time>
      </trkpt>
      <trkpt lat="43.03946" lon="0.27496">
        <ele>519.532236</ele>
        <time>2021-09-03T18:02:45.661Z</time>
      </trkpt>
      <trkpt lat="43.03927" lon="0.27387">
        <ele>527.147781</ele>
        <time>2021-09-03T18:03:38.305Z</time>
      </trkpt>
      <trkpt lat="43.03925" lon="0.27338">
        <ele>530.58389</ele>
        <time>2021-09-03T18:04:01.653Z</time>
      </trkpt>
      <trkpt lat="43.03928" lon="0.27291">
        <ele>533.841835</ele>
        <time>2021-09-03T18:04:23.752Z</time>
      </trkpt>
      <trkpt lat="43.0392" lon="0.27236">
        <ele>537.707572</ele>
        <time>2021-09-03T18:04:48.973Z</time>
      </trkpt>
      <trkpt lat="43.03919" lon="0.27221">
        <ele>538.750724</ele>
        <time>2021-09-03T18:04:55.572Z</time>
      </trkpt>
      <trkpt lat="43.03931" lon="0.27162">
        <ele>543.042536</ele>
        <time>2021-09-03T18:05:21.115Z</time>
      </trkpt>
      <trkpt lat="43.03929" lon="0.27147">
        <ele>543.547622</ele>
        <time>2021-09-03T18:05:26.850Z</time>
      </trkpt>
      <trkpt lat="43.03911" lon="0.27122">
        <ele>544.732218</ele>
        <time>2021-09-03T18:05:39.437Z</time>
      </trkpt>
      <trkpt lat="43.03886" lon="0.27109">
        <ele>545.972599</ele>
        <time>2021-09-03T18:05:51.314Z</time>
      </trkpt>
      <trkpt lat="43.03873" lon="0.27114">
        <ele>546.620891</ele>
        <time>2021-09-03T18:05:57.027Z</time>
      </trkpt>
      <trkpt lat="43.03862" lon="0.27128">
        <ele>547.287786</ele>
        <time>2021-09-03T18:06:01.703Z</time>
      </trkpt>
      <trkpt lat="43.03852" lon="0.27161">
        <ele>548.510554</ele>
        <time>2021-09-03T18:06:11.969Z</time>
      </trkpt>
      <trkpt lat="43.03821" lon="0.27184">
        <ele>550.122649</ele>
        <time>2021-09-03T18:06:23.808Z</time>
      </trkpt>
      <trkpt lat="43.03766" lon="0.27258">
        <ele>553.279401</ele>
        <time>2021-09-03T18:06:49.020Z</time>
      </trkpt>
      <trkpt lat="43.03762" lon="0.27258">
        <ele>553.42348</ele>
        <time>2021-09-03T18:06:49.630Z</time>
      </trkpt>
      <trkpt lat="43.03757" lon="0.27255">
        <ele>553.625677</ele>
        <time>2021-09-03T18:06:52.098Z</time>
      </trkpt>
      <trkpt lat="43.03754" lon="0.27237">
        <ele>554.130082</ele>
        <time>2021-09-03T18:06:56.649Z</time>
      </trkpt>
      <trkpt lat="43.03765" lon="0.27162">
        <ele>556.232359</ele>
        <time>2021-09-03T18:07:15.464Z</time>
      </trkpt>
      <trkpt lat="43.03775" lon="0.27002">
        <ele>563.661294</ele>
        <time>2021-09-03T18:08:10.117Z</time>
      </trkpt>
      <trkpt lat="43.03792" lon="0.2692">
        <ele>568.842187</ele>
        <time>2021-09-03T18:08:46.641Z</time>
      </trkpt>
      <trkpt lat="43.03813" lon="0.26838">
        <ele>574.400275</ele>
        <time>2021-09-03T18:09:26.382Z</time>
      </trkpt>
      <trkpt lat="43.03836" lon="0.26774">
        <ele>579.749076</ele>
        <time>2021-09-03T18:10:01.845Z</time>
      </trkpt>
      <trkpt lat="43.03837" lon="0.2676">
        <ele>580.803184</ele>
        <time>2021-09-03T18:10:10.196Z</time>
      </trkpt>
      <trkpt lat="43.03812" lon="0.2668">
        <ele>587.353125</ele>
        <time>2021-09-03T18:10:48.826Z</time>
      </trkpt>
      <trkpt lat="43.03792" lon="0.26636">
        <ele>591.272656</ele>
        <time>2021-09-03T18:11:10.133Z</time>
      </trkpt>
      <trkpt lat="43.03784" lon="0.2663">
        <ele>592.136361</ele>
        <time>2021-09-03T18:11:17.601Z</time>
      </trkpt>
      <trkpt lat="43.0377" lon="0.2663">
        <ele>593.383464</ele>
        <time>2021-09-03T18:11:26.473Z</time>
      </trkpt>
      <trkpt lat="43.03649" lon="0.26671">
        <ele>604.978634</ele>
        <time>2021-09-03T18:12:40.579Z</time>
      </trkpt>
      <trkpt lat="43.03646" lon="0.26666">
        <ele>605.444439</ele>
        <time>2021-09-03T18:12:44.286Z</time>
      </trkpt>
      <trkpt lat="43.03645" lon="0.26657">
        <ele>606.039698</ele>
        <time>2021-09-03T18:12:50.540Z</time>
      </trkpt>
      <trkpt lat="43.03684" lon="0.26618">
        <ele>608.92894</ele>
        <time>2021-09-03T18:13:15.359Z</time>
      </trkpt>
      <trkpt lat="43.03702" lon="0.26584">
        <ele>609.728438</ele>
        <time>2021-09-03T18:13:32.418Z</time>
      </trkpt>
      <trkpt lat="43.03731" lon="0.26524">
        <ele>611.099939</ele>
        <time>2021-09-03T18:13:50.087Z</time>
      </trkpt>
      <trkpt lat="43.03741" lon="0.26494">
        <ele>611.728332</ele>
        <time>2021-09-03T18:13:57.592Z</time>
      </trkpt>
      <trkpt lat="43.03737" lon="0.26481">
        <ele>611.985763</ele>
        <time>2021-09-03T18:14:01.366Z</time>
      </trkpt>
      <trkpt lat="43.03725" lon="0.26416">
        <ele>611.634926</ele>
        <time>2021-09-03T18:14:12.689Z</time>
      </trkpt>
      <trkpt lat="43.03724" lon="0.26408">
        <ele>610.945352</ele>
        <time>2021-09-03T18:14:14.074Z</time>
      </trkpt>
      <trkpt lat="43.03726" lon="0.26406">
        <ele>610.687692</ele>
        <time>2021-09-03T18:14:14.522Z</time>
      </trkpt>
      <trkpt lat="43.03727" lon="0.26403">
        <ele>610.354074</ele>
        <time>2021-09-03T18:14:15.015Z</time>
      </trkpt>
      <trkpt lat="43.03783" lon="0.26366">
        <ele>603.107754</ele>
        <time>2021-09-03T18:14:26.883Z</time>
      </trkpt>
      <trkpt lat="43.03799" lon="0.26326">
        <ele>599.225929</ele>
        <time>2021-09-03T18:14:32.787Z</time>
      </trkpt>
      <trkpt lat="43.03803" lon="0.26307">
        <ele>597.462838</ele>
        <time>2021-09-03T18:14:35.377Z</time>
      </trkpt>
      <trkpt lat="43.03805" lon="0.2626">
        <ele>593.38678</ele>
        <time>2021-09-03T18:14:41.350Z</time>
      </trkpt>
      <trkpt lat="43.03818" lon="0.26213">
        <ele>587.808651</ele>
        <time>2021-09-03T18:14:47.651Z</time>
      </trkpt>
      <trkpt lat="43.03807" lon="0.26115">
        <ele>575.10245</ele>
        <time>2021-09-03T18:15:00.277Z</time>
      </trkpt>
      <trkpt lat="43.03808" lon="0.26099">
        <ele>573.029645</ele>
        <time>2021-09-03T18:15:02.409Z</time>
      </trkpt>
      <trkpt lat="43.03809" lon="0.26093">
        <ele>572.267799</ele>
        <time>2021-09-03T18:15:03.176Z</time>
      </trkpt>
      <trkpt lat="43.03811" lon="0.26084">
        <ele>571.008993</ele>
        <time>2021-09-03T18:15:04.446Z</time>
      </trkpt>
      <trkpt lat="43.03831" lon="0.26041">
        <ele>564.465909</ele>
        <time>2021-09-03T18:15:10.992Z</time>
      </trkpt>
      <trkpt lat="43.03896" lon="0.25938">
        <ele>548.66475</ele>
        <time>2021-09-03T18:15:28.291Z</time>
      </trkpt>
      <trkpt lat="43.03942" lon="0.25885">
        <ele>539.337665</ele>
        <time>2021-09-03T18:15:39.012Z</time>
      </trkpt>
      <trkpt lat="43.03952" lon="0.25876">
        <ele>537.474596</ele>
        <time>2021-09-03T18:15:41.155Z</time>
      </trkpt>
      <trkpt lat="43.03968" lon="0.25873">
        <ele>535.010527</ele>
        <time>2021-09-03T18:15:43.994Z</time>
      </trkpt>
      <trkpt lat="43.03962" lon="0.25855">
        <ele>532.746526</ele>
        <time>2021-09-03T18:15:46.591Z</time>
      </trkpt>
      <trkpt lat="43.03919" lon="0.25816">
        <ele>524.849439</ele>
        <time>2021-09-03T18:15:55.588Z</time>
      </trkpt>
      <trkpt lat="43.03901" lon="0.25813">
        <ele>522.062288</ele>
        <time>2021-09-03T18:15:58.767Z</time>
      </trkpt>
      <trkpt lat="43.03897" lon="0.25804">
        <ele>520.810532</ele>
        <time>2021-09-03T18:16:00.210Z</time>
      </trkpt>
      <trkpt lat="43.03907" lon="0.25787">
        <ele>518.417986</ele>
        <time>2021-09-03T18:16:02.952Z</time>
      </trkpt>
      <trkpt lat="43.03933" lon="0.25764">
        <ele>513.704454</ele>
        <time>2021-09-03T18:16:08.350Z</time>
      </trkpt>
      <trkpt lat="43.03971" lon="0.25751">
        <ele>507.600841</ele>
        <time>2021-09-03T18:16:15.386Z</time>
      </trkpt>
      <trkpt lat="43.03981" lon="0.25741">
        <ele>505.743057</ele>
        <time>2021-09-03T18:16:17.527Z</time>
      </trkpt>
      <trkpt lat="43.03981" lon="0.25737">
        <ele>505.317103</ele>
        <time>2021-09-03T18:16:17.910Z</time>
      </trkpt>
      <trkpt lat="43.03984" lon="0.25728">
        <ele>504.480897</ele>
        <time>2021-09-03T18:16:18.874Z</time>
      </trkpt>
      <trkpt lat="43.0399" lon="0.25721">
        <ele>503.665366</ele>
        <time>2021-09-03T18:16:20.015Z</time>
      </trkpt>
      <trkpt lat="43.0405" lon="0.25659">
        <ele>496.401328</ele>
        <time>2021-09-03T18:16:30.423Z</time>
      </trkpt>
      <trkpt lat="43.04083" lon="0.25633">
        <ele>492.65668</ele>
        <time>2021-09-03T18:16:35.954Z</time>
      </trkpt>
      <trkpt lat="43.04116" lon="0.25597">
        <ele>488.531689</ele>
        <time>2021-09-03T18:16:42.306Z</time>
      </trkpt>
      <trkpt lat="43.04102" lon="0.25571">
        <ele>487.286795</ele>
        <time>2021-09-03T18:16:46.477Z</time>
      </trkpt>
      <trkpt lat="43.04096" lon="0.25561">
        <ele>487.190894</ele>
        <time>2021-09-03T18:16:48.086Z</time>
      </trkpt>
      <trkpt lat="43.04079" lon="0.25538">
        <ele>486.960037</ele>
        <time>2021-09-03T18:16:52.218Z</time>
      </trkpt>
      <trkpt lat="43.04051" lon="0.25497">
        <ele>486.549005</ele>
        <time>2021-09-03T18:16:59.849Z</time>
      </trkpt>
      <trkpt lat="43.04029" lon="0.25467">
        <ele>486.241179</ele>
        <time>2021-09-03T18:17:06.983Z</time>
      </trkpt>
      <trkpt lat="43.04027" lon="0.25461">
        <ele>486.189016</ele>
        <time>2021-09-03T18:17:08.430Z</time>
      </trkpt>
      <trkpt lat="43.04024" lon="0.25456">
        <ele>486.145297</ele>
        <time>2021-09-03T18:17:09.361Z</time>
      </trkpt>
      <trkpt lat="43.04022" lon="0.25444">
        <ele>486.057865</ele>
        <time>2021-09-03T18:17:11.453Z</time>
      </trkpt>
      <trkpt lat="43.04024" lon="0.25434">
        <ele>485.985</ele>
        <time>2021-09-03T18:17:14.105Z</time>
      </trkpt>
      <trkpt lat="43.04033" lon="0.25404">
        <ele>485.748552</ele>
        <time>2021-09-03T18:17:20.538Z</time>
      </trkpt>
      <trkpt lat="43.04044" lon="0.25359">
        <ele>486.516668</ele>
        <time>2021-09-03T18:17:32.175Z</time>
      </trkpt>
      <trkpt lat="43.04062" lon="0.25306">
        <ele>488.255812</ele>
        <time>2021-09-03T18:17:47.058Z</time>
      </trkpt>
      <trkpt lat="43.04064" lon="0.25303">
        <ele>488.379702</ele>
        <time>2021-09-03T18:17:48.801Z</time>
      </trkpt>
      <trkpt lat="43.04094" lon="0.25265">
        <ele>490.035638</ele>
        <time>2021-09-03T18:18:05.332Z</time>
      </trkpt>
      <trkpt lat="43.04156" lon="0.25265">
        <ele>492.55817</ele>
        <time>2021-09-03T18:18:31.696Z</time>
      </trkpt>
      <trkpt lat="43.04204" lon="0.2524">
        <ele>495.772222</ele>
        <time>2021-09-03T18:18:56.269Z</time>
      </trkpt>
      <trkpt lat="43.04235" lon="0.25215">
        <ele>498.180089</ele>
        <time>2021-09-03T18:19:13.425Z</time>
      </trkpt>
      <trkpt lat="43.04297" lon="0.25141">
        <ele>503.788021</ele>
        <time>2021-09-03T18:19:56.105Z</time>
      </trkpt>
      <trkpt lat="43.04415" lon="0.25041">
        <ele>515.422887</ele>
        <time>2021-09-03T18:21:14.224Z</time>
      </trkpt>
      <trkpt lat="43.0447" lon="0.24983">
        <ele>521.833873</ele>
        <time>2021-09-03T18:21:54.077Z</time>
      </trkpt>
      <trkpt lat="43.04477" lon="0.24976">
        <ele>522.981146</ele>
        <time>2021-09-03T18:22:00.903Z</time>
      </trkpt>
      <trkpt lat="43.04508" lon="0.24919">
        <ele>529.49207</ele>
        <time>2021-09-03T18:22:38.636Z</time>
      </trkpt>
      <trkpt lat="43.04532" lon="0.24887">
        <ele>533.641873</ele>
        <time>2021-09-03T18:23:02.351Z</time>
      </trkpt>
      <trkpt lat="43.04551" lon="0.24882">
        <ele>536.121385</ele>
        <time>2021-09-03T18:23:18.061Z</time>
      </trkpt>
      <trkpt lat="43.0457" lon="0.24886">
        <ele>538.547966</ele>
        <time>2021-09-03T18:23:33.918Z</time>
      </trkpt>
      <trkpt lat="43.04596" lon="0.24877">
        <ele>541.920783</ele>
        <time>2021-09-03T18:23:53.513Z</time>
      </trkpt>
      <trkpt lat="43.04601" lon="0.24872">
        <ele>542.731221</ele>
        <time>2021-09-03T18:23:59.536Z</time>
      </trkpt>
      <trkpt lat="43.04602" lon="0.24866">
        <ele>543.289275</ele>
        <time>2021-09-03T18:24:04.649Z</time>
      </trkpt>
      <trkpt lat="43.04591" lon="0.24842">
        <ele>546.435323</ele>
        <time>2021-09-03T18:24:17.893Z</time>
      </trkpt>
      <trkpt lat="43.0459" lon="0.24826">
        <ele>548.231542</ele>
        <time>2021-09-03T18:24:28.209Z</time>
      </trkpt>
      <trkpt lat="43.04618" lon="0.24703">
        <ele>562.659956</ele>
        <time>2021-09-03T18:25:50.458Z</time>
      </trkpt>
      <trkpt lat="43.04665" lon="0.24634">
        <ele>572.682118</ele>
        <time>2021-09-03T18:26:50.912Z</time>
      </trkpt>
      <trkpt lat="43.04694" lon="0.24578">
        <ele>578.573146</ele>
        <time>2021-09-03T18:27:28.904Z</time>
      </trkpt>
      <trkpt lat="43.04694" lon="0.24571">
        <ele>579.21224</ele>
        <time>2021-09-03T18:27:33.386Z</time>
      </trkpt>
      <trkpt lat="43.04691" lon="0.24569">
        <ele>579.54838</ele>
        <time>2021-09-03T18:27:36.918Z</time>
      </trkpt>
      <trkpt lat="43.04688" lon="0.24568">
        <ele>579.943834</ele>
        <time>2021-09-03T18:27:38.031Z</time>
      </trkpt>
      <trkpt lat="43.04661" lon="0.24598">
        <ele>584.076972</ele>
        <time>2021-09-03T18:28:04.714Z</time>
      </trkpt>
      <trkpt lat="43.04643" lon="0.246">
        <ele>586.207905</ele>
        <time>2021-09-03T18:28:12.835Z</time>
      </trkpt>
      <trkpt lat="43.04635" lon="0.24589">
        <ele>587.571331</ele>
        <time>2021-09-03T18:28:21.522Z</time>
      </trkpt>
      <trkpt lat="43.04621" lon="0.24543">
        <ele>591.87075</ele>
        <time>2021-09-03T18:28:42.815Z</time>
      </trkpt>
      <trkpt lat="43.04617" lon="0.24511">
        <ele>592.065441</ele>
        <time>2021-09-03T18:28:53.671Z</time>
      </trkpt>
      <trkpt lat="43.04617" lon="0.245">
        <ele>592.062558</ele>
        <time>2021-09-03T18:28:58.731Z</time>
      </trkpt>
      <trkpt lat="43.0462" lon="0.24493">
        <ele>592.060576</ele>
        <time>2021-09-03T18:29:02.846Z</time>
      </trkpt>
      <trkpt lat="43.04667" lon="0.2445">
        <ele>592.040709</ele>
        <time>2021-09-03T18:29:16.766Z</time>
      </trkpt>
      <trkpt lat="43.04732" lon="0.24374">
        <ele>592.010621</ele>
        <time>2021-09-03T18:29:31.769Z</time>
      </trkpt>
      <trkpt lat="43.04765" lon="0.24325">
        <ele>588.134162</ele>
        <time>2021-09-03T18:29:38.831Z</time>
      </trkpt>
      <trkpt lat="43.04808" lon="0.24204">
        <ele>580.016597</ele>
        <time>2021-09-03T18:29:52.744Z</time>
      </trkpt>
      <trkpt lat="43.04797" lon="0.24109">
        <ele>576.845371</ele>
        <time>2021-09-03T18:30:03.351Z</time>
      </trkpt>
      <trkpt lat="43.04792" lon="0.24104">
        <ele>576.795697</ele>
        <time>2021-09-03T18:30:04.372Z</time>
      </trkpt>
      <trkpt lat="43.04783" lon="0.24107">
        <ele>576.72396</ele>
        <time>2021-09-03T18:30:05.867Z</time>
      </trkpt>
      <trkpt lat="43.04782" lon="0.2411">
        <ele>576.706433</ele>
        <time>2021-09-03T18:30:06.179Z</time>
      </trkpt>
      <trkpt lat="43.04781" lon="0.24113">
        <ele>576.684716</ele>
        <time>2021-09-03T18:30:09.391Z</time>
      </trkpt>
      <trkpt lat="43.0479" lon="0.24168">
        <ele>576.36319</ele>
        <time>2021-09-03T18:30:20.240Z</time>
      </trkpt>
      <trkpt lat="43.04786" lon="0.24193">
        <ele>576.219557</ele>
        <time>2021-09-03T18:30:24.201Z</time>
      </trkpt>
      <trkpt lat="43.0474" lon="0.2425">
        <ele>575.735249</ele>
        <time>2021-09-03T18:30:46.703Z</time>
      </trkpt>
      <trkpt lat="43.04717" lon="0.2426">
        <ele>575.962668</ele>
        <time>2021-09-03T18:30:54.401Z</time>
      </trkpt>
      <trkpt lat="43.04714" lon="0.24258">
        <ele>575.997131</ele>
        <time>2021-09-03T18:30:58.029Z</time>
      </trkpt>
      <trkpt lat="43.0471" lon="0.24251">
        <ele>576.074066</ele>
        <time>2021-09-03T18:31:00.796Z</time>
      </trkpt>
      <trkpt lat="43.04685" lon="0.2422">
        <ele>576.441685</ele>
        <time>2021-09-03T18:31:15.133Z</time>
      </trkpt>
      <trkpt lat="43.04647" lon="0.24214">
        <ele>576.860401</ele>
        <time>2021-09-03T18:31:29.118Z</time>
      </trkpt>
      <trkpt lat="43.04635" lon="0.24208">
        <ele>577.002965</ele>
        <time>2021-09-03T18:31:33.257Z</time>
      </trkpt>
      <trkpt lat="43.0463" lon="0.24202">
        <ele>577.069253</ele>
        <time>2021-09-03T18:31:34.390Z</time>
      </trkpt>
      <trkpt lat="43.04556" lon="0.24036">
        <ele>570.162639</ele>
        <time>2021-09-03T18:31:58.048Z</time>
      </trkpt>
      <trkpt lat="43.04517" lon="0.2397">
        <ele>564.714396</ele>
        <time>2021-09-03T18:32:06.695Z</time>
      </trkpt>
      <trkpt lat="43.04514" lon="0.23946">
        <ele>563.156971</ele>
        <time>2021-09-03T18:32:09.125Z</time>
      </trkpt>
      <trkpt lat="43.04524" lon="0.23928">
        <ele>561.478183</ele>
        <time>2021-09-03T18:32:11.407Z</time>
      </trkpt>
      <trkpt lat="43.04527" lon="0.23909">
        <ele>559.096055</ele>
        <time>2021-09-03T18:32:13.256Z</time>
      </trkpt>
      <trkpt lat="43.04526" lon="0.23841">
        <ele>550.361289</ele>
        <time>2021-09-03T18:32:19.963Z</time>
      </trkpt>
      <trkpt lat="43.04512" lon="0.23786">
        <ele>542.853912</ele>
        <time>2021-09-03T18:32:25.689Z</time>
      </trkpt>
      <trkpt lat="43.04474" lon="0.2374">
        <ele>534.009661</ele>
        <time>2021-09-03T18:32:32.431Z</time>
      </trkpt>
      <trkpt lat="43.04473" lon="0.2373">
        <ele>532.683085</ele>
        <time>2021-09-03T18:32:33.437Z</time>
      </trkpt>
      <trkpt lat="43.04476" lon="0.2372">
        <ele>531.307769</ele>
        <time>2021-09-03T18:32:34.481Z</time>
      </trkpt>
      <trkpt lat="43.04497" lon="0.23695">
        <ele>526.702576</ele>
        <time>2021-09-03T18:32:38.240Z</time>
      </trkpt>
      <trkpt lat="43.04497" lon="0.23676">
        <ele>524.559684</ele>
        <time>2021-09-03T18:32:40.021Z</time>
      </trkpt>
      <trkpt lat="43.04491" lon="0.23655">
        <ele>521.810548</ele>
        <time>2021-09-03T18:32:42.303Z</time>
      </trkpt>
      <trkpt lat="43.04475" lon="0.23637">
        <ele>518.481368</ele>
        <time>2021-09-03T18:32:45.080Z</time>
      </trkpt>
      <trkpt lat="43.0444" lon="0.23621">
        <ele>512.542592</ele>
        <time>2021-09-03T18:32:50.077Z</time>
      </trkpt>
      <trkpt lat="43.04412" lon="0.23623">
        <ele>508.077918</ele>
        <time>2021-09-03T18:32:53.820Z</time>
      </trkpt>
      <trkpt lat="43.04401" lon="0.23617">
        <ele>506.23511</ele>
        <time>2021-09-03T18:32:55.399Z</time>
      </trkpt>
      <trkpt lat="43.04393" lon="0.2359">
        <ele>502.815751</ele>
        <time>2021-09-03T18:32:58.301Z</time>
      </trkpt>
      <trkpt lat="43.04409" lon="0.23541">
        <ele>498.560787</ele>
        <time>2021-09-03T18:33:03.712Z</time>
      </trkpt>
      <trkpt lat="43.04384" lon="0.23484">
        <ele>494.051505</ele>
        <time>2021-09-03T18:33:10.522Z</time>
      </trkpt>
      <trkpt lat="43.04384" lon="0.2347">
        <ele>493.098513</ele>
        <time>2021-09-03T18:33:12.009Z</time>
      </trkpt>
      <trkpt lat="43.04385" lon="0.23453">
        <ele>491.921853</ele>
        <time>2021-09-03T18:33:13.729Z</time>
      </trkpt>
      <trkpt lat="43.0439" lon="0.23445">
        <ele>491.185684</ele>
        <time>2021-09-03T18:33:14.902Z</time>
      </trkpt>
      <trkpt lat="43.04405" lon="0.23429">
        <ele>489.395356</ele>
        <time>2021-09-03T18:33:17.739Z</time>
      </trkpt>
      <trkpt lat="43.04417" lon="0.2342">
        <ele>488.153345</ele>
        <time>2021-09-03T18:33:19.617Z</time>
      </trkpt>
      <trkpt lat="43.0442" lon="0.23417">
        <ele>487.817075</ele>
        <time>2021-09-03T18:33:20.183Z</time>
      </trkpt>
      <trkpt lat="43.04428" lon="0.23417">
        <ele>487.039311</ele>
        <time>2021-09-03T18:33:21.545Z</time>
      </trkpt>
      <trkpt lat="43.04437" lon="0.23417">
        <ele>486.168381</ele>
        <time>2021-09-03T18:33:22.976Z</time>
      </trkpt>
      <trkpt lat="43.04446" lon="0.23418">
        <ele>485.37592</ele>
        <time>2021-09-03T18:33:24.157Z</time>
      </trkpt>
      <trkpt lat="43.04457" lon="0.23422">
        <ele>484.70477</ele>
        <time>2021-09-03T18:33:26.263Z</time>
      </trkpt>
      <trkpt lat="43.04487" lon="0.23451">
        <ele>485.601411</ele>
        <time>2021-09-03T18:33:32.793Z</time>
      </trkpt>
      <trkpt lat="43.04516" lon="0.23458">
        <ele>486.312637</ele>
        <time>2021-09-03T18:33:38.334Z</time>
      </trkpt>
      <trkpt lat="43.04517" lon="0.23452">
        <ele>486.41031</ele>
        <time>2021-09-03T18:33:39.641Z</time>
      </trkpt>
      <trkpt lat="43.04523" lon="0.2345">
        <ele>486.567787</ele>
        <time>2021-09-03T18:33:42.472Z</time>
      </trkpt>
      <trkpt lat="43.04541" lon="0.23464">
        <ele>487.06533</ele>
        <time>2021-09-03T18:33:48.249Z</time>
      </trkpt>
      <trkpt lat="43.04548" lon="0.2347">
        <ele>487.280024</ele>
        <time>2021-09-03T18:33:51.367Z</time>
      </trkpt>
      <trkpt lat="43.04552" lon="0.23473">
        <ele>487.389496</ele>
        <time>2021-09-03T18:33:53.734Z</time>
      </trkpt>
      <trkpt lat="43.04576" lon="0.23473">
        <ele>487.964609</ele>
        <time>2021-09-03T18:34:02.174Z</time>
      </trkpt>
      <trkpt lat="43.04581" lon="0.23467">
        <ele>488.125502</ele>
        <time>2021-09-03T18:34:04.940Z</time>
      </trkpt>
      <trkpt lat="43.04572" lon="0.23443">
        <ele>488.60357</ele>
        <time>2021-09-03T18:34:16.628Z</time>
      </trkpt>
      <trkpt lat="43.04542" lon="0.23348">
        <ele>496.593632</ele>
        <time>2021-09-03T18:35:08.639Z</time>
      </trkpt>
      <trkpt lat="43.04542" lon="0.23337">
        <ele>497.595508</ele>
        <time>2021-09-03T18:35:14.817Z</time>
      </trkpt>
      <trkpt lat="43.0456" lon="0.2328">
        <ele>503.460873</ele>
        <time>2021-09-03T18:35:52.923Z</time>
      </trkpt>
      <trkpt lat="43.04594" lon="0.23175">
        <ele>513.961236</ele>
        <time>2021-09-03T18:36:59.745Z</time>
      </trkpt>
      <trkpt lat="43.04595" lon="0.2316">
        <ele>515.179523</ele>
        <time>2021-09-03T18:37:09.149Z</time>
      </trkpt>
      <trkpt lat="43.04598" lon="0.23109">
        <ele>519.298556</ele>
        <time>2021-09-03T18:37:35.663Z</time>
      </trkpt>
      <trkpt lat="43.04596" lon="0.23093">
        <ele>520.646038</ele>
        <time>2021-09-03T18:37:43.134Z</time>
      </trkpt>
      <trkpt lat="43.04589" lon="0.23079">
        <ele>522.056954</ele>
        <time>2021-09-03T18:37:51.579Z</time>
      </trkpt>
      <trkpt lat="43.04579" lon="0.23068">
        <ele>523.549171</ele>
        <time>2021-09-03T18:38:01.849Z</time>
      </trkpt>
      <trkpt lat="43.04528" lon="0.23057">
        <ele>529.279647</ele>
        <time>2021-09-03T18:38:33.319Z</time>
      </trkpt>
      <trkpt lat="43.0452" lon="0.23043">
        <ele>530.710082</ele>
        <time>2021-09-03T18:38:41.279Z</time>
      </trkpt>
      <trkpt lat="43.04526" lon="0.22954">
        <ele>536.916879</ele>
        <time>2021-09-03T18:39:14.407Z</time>
      </trkpt>
      <trkpt lat="43.04561" lon="0.22775">
        <ele>549.604328</ele>
        <time>2021-09-03T18:40:32.686Z</time>
      </trkpt>
      <trkpt lat="43.04558" lon="0.22709">
        <ele>555.839453</ele>
        <time>2021-09-03T18:41:11.980Z</time>
      </trkpt>
      <trkpt lat="43.0455" lon="0.22654">
        <ele>561.016901</ele>
        <time>2021-09-03T18:41:41.121Z</time>
      </trkpt>
      <trkpt lat="43.04551" lon="0.22627">
        <ele>563.625889</ele>
        <time>2021-09-03T18:41:54.187Z</time>
      </trkpt>
      <trkpt lat="43.04553" lon="0.22619">
        <ele>564.35089</ele>
        <time>2021-09-03T18:42:00.705Z</time>
      </trkpt>
      <trkpt lat="43.04562" lon="0.22603">
        <ele>566.224214</ele>
        <time>2021-09-03T18:42:09.054Z</time>
      </trkpt>
      <trkpt lat="43.04573" lon="0.22575">
        <ele>569.16154</ele>
        <time>2021-09-03T18:42:29.045Z</time>
      </trkpt>
      <trkpt lat="43.04608" lon="0.22447">
        <ele>582.326326</ele>
        <time>2021-09-03T18:43:44.975Z</time>
      </trkpt>
      <trkpt lat="43.04632" lon="0.22429">
        <ele>586.03021</ele>
        <time>2021-09-03T18:44:08.534Z</time>
      </trkpt>
      <trkpt lat="43.04685" lon="0.22409">
        <ele>593.190686</ele>
        <time>2021-09-03T18:44:45.917Z</time>
      </trkpt>
      <trkpt lat="43.04705" lon="0.22376">
        <ele>597.357744</ele>
        <time>2021-09-03T18:45:08.017Z</time>
      </trkpt>
      <trkpt lat="43.04737" lon="0.22284">
        <ele>607.180318</ele>
        <time>2021-09-03T18:46:04.043Z</time>
      </trkpt>
      <trkpt lat="43.04749" lon="0.22227">
        <ele>612.809312</ele>
        <time>2021-09-03T18:46:36.883Z</time>
      </trkpt>
      <trkpt lat="43.04754" lon="0.22133">
        <ele>622.096996</ele>
        <time>2021-09-03T18:47:29.752Z</time>
      </trkpt>
      <trkpt lat="43.04741" lon="0.21939">
        <ele>642.121276</ele>
        <time>2021-09-03T18:49:21.015Z</time>
      </trkpt>
      <trkpt lat="43.04734" lon="0.21905">
        <ele>645.640597</ele>
        <time>2021-09-03T18:49:43.344Z</time>
      </trkpt>
      <trkpt lat="43.04704" lon="0.21836">
        <ele>653.185916</ele>
        <time>2021-09-03T18:50:30.035Z</time>
      </trkpt>
      <trkpt lat="43.04695" lon="0.21816">
        <ele>655.423818</ele>
        <time>2021-09-03T18:50:44.021Z</time>
      </trkpt>
      <trkpt lat="43.0469" lon="0.21797">
        <ele>657.339514</ele>
        <time>2021-09-03T18:50:55.202Z</time>
      </trkpt>
      <trkpt lat="43.04684" lon="0.21775">
        <ele>659.542488</ele>
        <time>2021-09-03T18:51:08.527Z</time>
      </trkpt>
      <trkpt lat="43.04683" lon="0.21755">
        <ele>661.468735</ele>
        <time>2021-09-03T18:51:18.570Z</time>
      </trkpt>
      <trkpt lat="43.04684" lon="0.21733">
        <ele>663.579661</ele>
        <time>2021-09-03T18:51:31.113Z</time>
      </trkpt>
      <trkpt lat="43.04752" lon="0.21595">
        <ele>673.05748</ele>
        <time>2021-09-03T18:52:42.820Z</time>
      </trkpt>
      <trkpt lat="43.04808" lon="0.21501">
        <ele>678.360062</ele>
        <time>2021-09-03T18:53:13.127Z</time>
      </trkpt>
      <trkpt lat="43.04824" lon="0.21443">
        <ele>679.117209</ele>
        <time>2021-09-03T18:53:25.372Z</time>
      </trkpt>
      <trkpt lat="43.04831" lon="0.21429">
        <ele>679.297653</ele>
        <time>2021-09-03T18:53:28.346Z</time>
      </trkpt>
      <trkpt lat="43.04841" lon="0.21429">
        <ele>679.436674</ele>
        <time>2021-09-03T18:53:30.217Z</time>
      </trkpt>
      <trkpt lat="43.04894" lon="0.21459">
        <ele>680.285233</ele>
        <time>2021-09-03T18:53:43.905Z</time>
      </trkpt>
      <trkpt lat="43.04912" lon="0.21457">
        <ele>680.563036</ele>
        <time>2021-09-03T18:53:48.808Z</time>
      </trkpt>
      <trkpt lat="43.04958" lon="0.21434">
        <ele>681.760241</ele>
        <time>2021-09-03T18:54:04.367Z</time>
      </trkpt>
      <trkpt lat="43.04986" lon="0.21431">
        <ele>683.367002</ele>
        <time>2021-09-03T18:54:14.060Z</time>
      </trkpt>
      <trkpt lat="43.05027" lon="0.21391">
        <ele>686.320846</ele>
        <time>2021-09-03T18:54:34.938Z</time>
      </trkpt>
      <trkpt lat="43.05107" lon="0.21333">
        <ele>691.593398</ele>
        <time>2021-09-03T18:55:23.595Z</time>
      </trkpt>
      <trkpt lat="43.05152" lon="0.21286">
        <ele>696.143856</ele>
        <time>2021-09-03T18:55:55.917Z</time>
      </trkpt>
      <trkpt lat="43.05188" lon="0.21238">
        <ele>700.202679</ele>
        <time>2021-09-03T18:56:24.205Z</time>
      </trkpt>
      <trkpt lat="43.05198" lon="0.21225">
        <ele>701.288026</ele>
        <time>2021-09-03T18:56:31.287Z</time>
      </trkpt>
      <trkpt lat="43.05273" lon="0.21089">
        <ele>710.846154</ele>
        <time>2021-09-03T18:57:36.932Z</time>
      </trkpt>
      <trkpt lat="43.05287" lon="0.21057">
        <ele>712.794459</ele>
        <time>2021-09-03T18:57:50.821Z</time>
      </trkpt>
      <trkpt lat="43.05292" lon="0.21038">
        <ele>713.851908</ele>
        <time>2021-09-03T18:57:57.221Z</time>
      </trkpt>
      <trkpt lat="43.053" lon="0.21015">
        <ele>715.186922</ele>
        <time>2021-09-03T18:58:07.192Z</time>
      </trkpt>
      <trkpt lat="43.0531" lon="0.20977">
        <ele>717.316259</ele>
        <time>2021-09-03T18:58:21.332Z</time>
      </trkpt>
      <trkpt lat="43.05308" lon="0.20884">
        <ele>722.165964</ele>
        <time>2021-09-03T18:58:56.429Z</time>
      </trkpt>
      <trkpt lat="43.05309" lon="0.20867">
        <ele>723.035848</ele>
        <time>2021-09-03T18:59:04.061Z</time>
      </trkpt>
      <trkpt lat="43.05303" lon="0.20838">
        <ele>724.575327</ele>
        <time>2021-09-03T18:59:15.045Z</time>
      </trkpt>
      <trkpt lat="43.05274" lon="0.20753">
        <ele>729.371219</ele>
        <time>2021-09-03T18:59:49.178Z</time>
      </trkpt>
      <trkpt lat="43.05238" lon="0.20698">
        <ele>732.728038</ele>
        <time>2021-09-03T19:00:15.906Z</time>
      </trkpt>
      <trkpt lat="43.05204" lon="0.20669">
        <ele>734.715127</ele>
        <time>2021-09-03T19:00:33.806Z</time>
      </trkpt>
      <trkpt lat="43.05174" lon="0.20663">
        <ele>736.220145</ele>
        <time>2021-09-03T19:00:46.389Z</time>
      </trkpt>
      <trkpt lat="43.05131" lon="0.20676">
        <ele>738.403889</ele>
        <time>2021-09-03T19:01:04.110Z</time>
      </trkpt>
      <trkpt lat="43.05071" lon="0.20617">
        <ele>741.617374</ele>
        <time>2021-09-03T19:01:32.122Z</time>
      </trkpt>
      <trkpt lat="43.05045" lon="0.20609">
        <ele>742.494941</ele>
        <time>2021-09-03T19:01:41.712Z</time>
      </trkpt>
      <trkpt lat="43.04945" lon="0.20603">
        <ele>745.801537</ele>
        <time>2021-09-03T19:02:17.397Z</time>
      </trkpt>
      <trkpt lat="43.04941" lon="0.20598">
        <ele>746.001657</ele>
        <time>2021-09-03T19:02:19.448Z</time>
      </trkpt>
      <trkpt lat="43.0496" lon="0.20543">
        <ele>747.175597</ele>
        <time>2021-09-03T19:02:33.641Z</time>
      </trkpt>
      <trkpt lat="43.04968" lon="0.20495">
        <ele>747.972391</ele>
        <time>2021-09-03T19:02:45.091Z</time>
      </trkpt>
      <trkpt lat="43.04965" lon="0.20479">
        <ele>748.234725</ele>
        <time>2021-09-03T19:02:48.911Z</time>
      </trkpt>
      <trkpt lat="43.0493" lon="0.20434">
        <ele>749.287496</ele>
        <time>2021-09-03T19:03:04.173Z</time>
      </trkpt>
      <trkpt lat="43.04869" lon="0.2038">
        <ele>750.468829</ele>
        <time>2021-09-03T19:03:26.343Z</time>
      </trkpt>
      <trkpt lat="43.04759" lon="0.2033">
        <ele>749.891446</ele>
        <time>2021-09-03T19:03:52.047Z</time>
      </trkpt>
      <trkpt lat="43.04702" lon="0.20319">
        <ele>749.44941</ele>
        <time>2021-09-03T19:04:01.958Z</time>
      </trkpt>
      <trkpt lat="43.04692" lon="0.20308">
        <ele>749.151143</ele>
        <time>2021-09-03T19:04:04.105Z</time>
      </trkpt>
      <trkpt lat="43.04697" lon="0.20292">
        <ele>748.859974</ele>
        <time>2021-09-03T19:04:06.082Z</time>
      </trkpt>
      <trkpt lat="43.04709" lon="0.20275">
        <ele>748.476081</ele>
        <time>2021-09-03T19:04:08.741Z</time>
      </trkpt>
      <trkpt lat="43.04755" lon="0.20225">
        <ele>747.119534</ele>
        <time>2021-09-03T19:04:18.038Z</time>
      </trkpt>
      <trkpt lat="43.04786" lon="0.20205">
        <ele>746.318528</ele>
        <time>2021-09-03T19:04:23.869Z</time>
      </trkpt>
      <trkpt lat="43.04853" lon="0.20178">
        <ele>747.258414</ele>
        <time>2021-09-03T19:04:37.720Z</time>
      </trkpt>
      <trkpt lat="43.04993" lon="0.20173">
        <ele>754.343178</ele>
        <time>2021-09-03T19:05:42.567Z</time>
      </trkpt>
      <trkpt lat="43.05009" lon="0.20168">
        <ele>755.755541</ele>
        <time>2021-09-03T19:05:54.187Z</time>
      </trkpt>
      <trkpt lat="43.05033" lon="0.20136">
        <ele>759.087831</ele>
        <time>2021-09-03T19:06:17.187Z</time>
      </trkpt>
      <trkpt lat="43.05038" lon="0.19973">
        <ele>770.910102</ele>
        <time>2021-09-03T19:07:35.135Z</time>
      </trkpt>
      <trkpt lat="43.05043" lon="0.19939">
        <ele>773.253329</ele>
        <time>2021-09-03T19:07:49.966Z</time>
      </trkpt>
      <trkpt lat="43.05051" lon="0.19923">
        <ele>774.405522</ele>
        <time>2021-09-03T19:07:57.640Z</time>
      </trkpt>
      <trkpt lat="43.0506" lon="0.19918">
        <ele>775.227039</ele>
        <time>2021-09-03T19:08:02.880Z</time>
      </trkpt>
      <trkpt lat="43.05104" lon="0.19955">
        <ele>779.497155</ele>
        <time>2021-09-03T19:08:28.756Z</time>
      </trkpt>
      <trkpt lat="43.05137" lon="0.1997">
        <ele>782.30325</ele>
        <time>2021-09-03T19:08:45.155Z</time>
      </trkpt>
      <trkpt lat="43.05175" lon="0.1998">
        <ele>785.47421</ele>
        <time>2021-09-03T19:09:04.949Z</time>
      </trkpt>
      <trkpt lat="43.05192" lon="0.19977">
        <ele>786.823379</ele>
        <time>2021-09-03T19:09:15.106Z</time>
      </trkpt>
      <trkpt lat="43.05227" lon="0.19949">
        <ele>791.119701</ele>
        <time>2021-09-03T19:09:43.237Z</time>
      </trkpt>
      <trkpt lat="43.05246" lon="0.19915">
        <ele>794.506227</ele>
        <time>2021-09-03T19:10:04.974Z</time>
      </trkpt>
      <trkpt lat="43.05265" lon="0.19858">
        <ele>799.458862</ele>
        <time>2021-09-03T19:10:34.971Z</time>
      </trkpt>
      <trkpt lat="43.05275" lon="0.19811">
        <ele>803.312616</ele>
        <time>2021-09-03T19:10:58.595Z</time>
      </trkpt>
      <trkpt lat="43.05278" lon="0.19792">
        <ele>804.831604</ele>
        <time>2021-09-03T19:11:09.849Z</time>
      </trkpt>
      <trkpt lat="43.05289" lon="0.19694">
        <ele>810.289903</ele>
        <time>2021-09-03T19:11:56.177Z</time>
      </trkpt>
      <trkpt lat="43.05295" lon="0.19668">
        <ele>811.616896</ele>
        <time>2021-09-03T19:12:06.412Z</time>
      </trkpt>
      <trkpt lat="43.05309" lon="0.19639">
        <ele>813.261012</ele>
        <time>2021-09-03T19:12:21.194Z</time>
      </trkpt>
      <trkpt lat="43.05319" lon="0.19634">
        <ele>813.949155</ele>
        <time>2021-09-03T19:12:25.797Z</time>
      </trkpt>
      <trkpt lat="43.05341" lon="0.19636">
        <ele>815.430383</ele>
        <time>2021-09-03T19:12:35.444Z</time>
      </trkpt>
      <trkpt lat="43.05386" lon="0.19651">
        <ele>818.405491</ele>
        <time>2021-09-03T19:12:47.302Z</time>
      </trkpt>
      <trkpt lat="43.05424" lon="0.19626">
        <ele>818.666224</ele>
        <time>2021-09-03T19:12:58.587Z</time>
      </trkpt>
      <trkpt lat="43.05499" lon="0.19613">
        <ele>819.130424</ele>
        <time>2021-09-03T19:13:17.946Z</time>
      </trkpt>
      <trkpt lat="43.0553" lon="0.19565">
        <ele>819.419241</ele>
        <time>2021-09-03T19:13:28.527Z</time>
      </trkpt>
      <trkpt lat="43.05563" lon="0.19497">
        <ele>818.50318</ele>
        <time>2021-09-03T19:13:40.623Z</time>
      </trkpt>
      <trkpt lat="43.05574" lon="0.19486">
        <ele>818.217173</ele>
        <time>2021-09-03T19:13:43.165Z</time>
      </trkpt>
      <trkpt lat="43.05709" lon="0.19421">
        <ele>814.441034</ele>
        <time>2021-09-03T19:14:06.954Z</time>
      </trkpt>
      <trkpt lat="43.05727" lon="0.19409">
        <ele>813.489843</ele>
        <time>2021-09-03T19:14:10.088Z</time>
      </trkpt>
      <trkpt lat="43.05727" lon="0.19409">
        <ele>813.489843</ele>
        <time>2021-09-03T19:14:10.113Z</time>
      </trkpt>
      <trkpt lat="43.05743" lon="0.19394">
        <ele>812.566087</ele>
        <time>2021-09-03T19:14:13.013Z</time>
      </trkpt>
      <trkpt lat="43.05758" lon="0.19376">
        <ele>811.612138</ele>
        <time>2021-09-03T19:14:16.003Z</time>
      </trkpt>
      <trkpt lat="43.05774" lon="0.19342">
        <ele>810.170185</ele>
        <time>2021-09-03T19:14:20.606Z</time>
      </trkpt>
      <trkpt lat="43.05778" lon="0.19344">
        <ele>809.971185</ele>
        <time>2021-09-03T19:14:21.157Z</time>
      </trkpt>
      <trkpt lat="43.05794" lon="0.19352">
        <ele>809.134014</ele>
        <time>2021-09-03T19:14:23.740Z</time>
      </trkpt>
      <trkpt lat="43.05813" lon="0.1936">
        <ele>808.183503</ele>
        <time>2021-09-03T19:14:26.676Z</time>
      </trkpt>
      <trkpt lat="43.05859" lon="0.19354">
        <ele>805.613176</ele>
        <time>2021-09-03T19:14:33.473Z</time>
      </trkpt>
      <trkpt lat="43.05898" lon="0.19333">
        <ele>802.83863</ele>
        <time>2021-09-03T19:14:39.614Z</time>
      </trkpt>
      <trkpt lat="43.05921" lon="0.19309">
        <ele>800.881472</ele>
        <time>2021-09-03T19:14:43.886Z</time>
      </trkpt>
      <trkpt lat="43.05945" lon="0.19266">
        <ele>798.257775</ele>
        <time>2021-09-03T19:14:49.575Z</time>
      </trkpt>
      <trkpt lat="43.05979" lon="0.19176">
        <ele>792.495339</ele>
        <time>2021-09-03T19:15:00.101Z</time>
      </trkpt>
      <trkpt lat="43.06007" lon="0.19122">
        <ele>787.601178</ele>
        <time>2021-09-03T19:15:06.709Z</time>
      </trkpt>
      <trkpt lat="43.06027" lon="0.19092">
        <ele>784.571782</ele>
        <time>2021-09-03T19:15:10.719Z</time>
      </trkpt>
      <trkpt lat="43.06044" lon="0.19082">
        <ele>782.627319</ele>
        <time>2021-09-03T19:15:13.282Z</time>
      </trkpt>
      <trkpt lat="43.06069" lon="0.19082">
        <ele>780.157724</ele>
        <time>2021-09-03T19:15:16.518Z</time>
      </trkpt>
      <trkpt lat="43.0612" lon="0.19112">
        <ele>774.115013</ele>
        <time>2021-09-03T19:15:23.883Z</time>
      </trkpt>
      <trkpt lat="43.06143" lon="0.19135">
        <ele>770.621188</ele>
        <time>2021-09-03T19:15:27.690Z</time>
      </trkpt>
      <trkpt lat="43.06183" lon="0.19211">
        <ele>762.362736</ele>
        <time>2021-09-03T19:15:36.695Z</time>
      </trkpt>
      <trkpt lat="43.06224" lon="0.19248">
        <ele>756.420914</ele>
        <time>2021-09-03T19:15:43.203Z</time>
      </trkpt>
      <trkpt lat="43.06288" lon="0.19273">
        <ele>750.421065</ele>
        <time>2021-09-03T19:15:52.219Z</time>
      </trkpt>
      <trkpt lat="43.06351" lon="0.19274">
        <ele>745.258477</ele>
        <time>2021-09-03T19:16:01.091Z</time>
      </trkpt>
      <trkpt lat="43.06367" lon="0.19277">
        <ele>743.952124</ele>
        <time>2021-09-03T19:16:03.351Z</time>
      </trkpt>
      <trkpt lat="43.06374" lon="0.19284">
        <ele>743.286704</ele>
        <time>2021-09-03T19:16:04.523Z</time>
      </trkpt>
      <trkpt lat="43.06386" lon="0.19309">
        <ele>741.474342</ele>
        <time>2021-09-03T19:16:07.779Z</time>
      </trkpt>
      <trkpt lat="43.06388" lon="0.19333">
        <ele>740.073425</ele>
        <time>2021-09-03T19:16:10.312Z</time>
      </trkpt>
      <trkpt lat="43.06386" lon="0.19366">
        <ele>739.064231</ele>
        <time>2021-09-03T19:16:13.995Z</time>
      </trkpt>
      <trkpt lat="43.06377" lon="0.19394">
        <ele>738.204835</ele>
        <time>2021-09-03T19:16:17.349Z</time>
      </trkpt>
      <trkpt lat="43.06361" lon="0.19422">
        <ele>737.143322</ele>
        <time>2021-09-03T19:16:21.466Z</time>
      </trkpt>
      <trkpt lat="43.06331" lon="0.19449">
        <ele>735.752452</ele>
        <time>2021-09-03T19:16:27.011Z</time>
      </trkpt>
      <trkpt lat="43.0626" lon="0.19536">
        <ele>732.381764</ele>
        <time>2021-09-03T19:16:42.940Z</time>
      </trkpt>
      <trkpt lat="43.06245" lon="0.19532">
        <ele>732.065242</ele>
        <time>2021-09-03T19:16:45.349Z</time>
      </trkpt>
      <trkpt lat="43.06218" lon="0.19483">
        <ele>731.0628</ele>
        <time>2021-09-03T19:16:53.340Z</time>
      </trkpt>
      <trkpt lat="43.06188" lon="0.19447">
        <ele>730.174452</ele>
        <time>2021-09-03T19:17:00.650Z</time>
      </trkpt>
      <trkpt lat="43.0617" lon="0.19433">
        <ele>729.71718</ele>
        <time>2021-09-03T19:17:04.454Z</time>
      </trkpt>
      <trkpt lat="43.06152" lon="0.19437">
        <ele>729.316026</ele>
        <time>2021-09-03T19:17:07.875Z</time>
      </trkpt>
      <trkpt lat="43.05999" lon="0.19516">
        <ele>721.215161</ele>
        <time>2021-09-03T19:17:34.334Z</time>
      </trkpt>
      <trkpt lat="43.05986" lon="0.19528">
        <ele>720.394556</ele>
        <time>2021-09-03T19:17:36.442Z</time>
      </trkpt>
      <trkpt lat="43.05983" lon="0.19554">
        <ele>719.345955</ele>
        <time>2021-09-03T19:17:39.043Z</time>
      </trkpt>
      <trkpt lat="43.06002" lon="0.19656">
        <ele>706.931742</ele>
        <time>2021-09-03T19:17:49.096Z</time>
      </trkpt>
      <trkpt lat="43.06004" lon="0.19711">
        <ele>700.471665</ele>
        <time>2021-09-03T19:17:54.253Z</time>
      </trkpt>
      <trkpt lat="43.06006" lon="0.19774">
        <ele>693.01326</ele>
        <time>2021-09-03T19:18:00.090Z</time>
      </trkpt>
      <trkpt lat="43.06005" lon="0.19833">
        <ele>685.432634</ele>
        <time>2021-09-03T19:18:05.569Z</time>
      </trkpt>
      <trkpt lat="43.05995" lon="0.19902">
        <ele>676.006738</ele>
        <time>2021-09-03T19:18:12.081Z</time>
      </trkpt>
      <trkpt lat="43.05996" lon="0.1994">
        <ele>670.982966</ele>
        <time>2021-09-03T19:18:15.567Z</time>
      </trkpt>
      <trkpt lat="43.05996" lon="0.19967">
        <ele>667.312179</ele>
        <time>2021-09-03T19:18:18.154Z</time>
      </trkpt>
      <trkpt lat="43.05996" lon="0.19999">
        <ele>662.972522</ele>
        <time>2021-09-03T19:18:21.205Z</time>
      </trkpt>
      <trkpt lat="43.05997" lon="0.20045">
        <ele>657.044579</ele>
        <time>2021-09-03T19:18:25.511Z</time>
      </trkpt>
      <trkpt lat="43.05998" lon="0.20062">
        <ele>655.502639</ele>
        <time>2021-09-03T19:18:27.148Z</time>
      </trkpt>
      <trkpt lat="43.06002" lon="0.20095">
        <ele>652.439832</ele>
        <time>2021-09-03T19:18:30.376Z</time>
      </trkpt>
      <trkpt lat="43.06009" lon="0.20109">
        <ele>650.942</ele>
        <time>2021-09-03T19:18:31.974Z</time>
      </trkpt>
      <trkpt lat="43.0605" lon="0.20146">
        <ele>644.961221</ele>
        <time>2021-09-03T19:18:38.423Z</time>
      </trkpt>
      <trkpt lat="43.06053" lon="0.2015">
        <ele>644.359215</ele>
        <time>2021-09-03T19:18:39.082Z</time>
      </trkpt>
      <trkpt lat="43.06052" lon="0.20158">
        <ele>643.62969</ele>
        <time>2021-09-03T19:18:40.101Z</time>
      </trkpt>
      <trkpt lat="43.06054" lon="0.2017">
        <ele>642.519865</ele>
        <time>2021-09-03T19:18:41.797Z</time>
      </trkpt>
      <trkpt lat="43.06073" lon="0.20194">
        <ele>639.330364</ele>
        <time>2021-09-03T19:18:46.613Z</time>
      </trkpt>
      <trkpt lat="43.06078" lon="0.20212">
        <ele>637.596473</ele>
        <time>2021-09-03T19:18:49.254Z</time>
      </trkpt>
      <trkpt lat="43.06042" lon="0.20236">
        <ele>633.00478</ele>
        <time>2021-09-03T19:18:56.835Z</time>
      </trkpt>
      <trkpt lat="43.06036" lon="0.20237">
        <ele>632.342478</ele>
        <time>2021-09-03T19:18:58.055Z</time>
      </trkpt>
      <trkpt lat="43.06017" lon="0.20213">
        <ele>629.574226</ele>
        <time>2021-09-03T19:19:02.726Z</time>
      </trkpt>
      <trkpt lat="43.06006" lon="0.2022">
        <ele>628.266633</ele>
        <time>2021-09-03T19:19:05.060Z</time>
      </trkpt>
      <trkpt lat="43.06003" lon="0.20239">
        <ele>626.743799</ele>
        <time>2021-09-03T19:19:07.573Z</time>
      </trkpt>
      <trkpt lat="43.06012" lon="0.20293">
        <ele>622.441673</ele>
        <time>2021-09-03T19:19:15.050Z</time>
      </trkpt>
      <trkpt lat="43.06001" lon="0.20367">
        <ele>616.621815</ele>
        <time>2021-09-03T19:19:25.264Z</time>
      </trkpt>
      <trkpt lat="43.06004" lon="0.20394">
        <ele>614.460605</ele>
        <time>2021-09-03T19:19:28.952Z</time>
      </trkpt>
      <trkpt lat="43.06004" lon="0.20406">
        <ele>613.516652</ele>
        <time>2021-09-03T19:19:31.104Z</time>
      </trkpt>
      <trkpt lat="43.06019" lon="0.20421">
        <ele>611.471464</ele>
        <time>2021-09-03T19:19:35.709Z</time>
      </trkpt>
      <trkpt lat="43.06101" lon="0.20445">
        <ele>602.470405</ele>
        <time>2021-09-03T19:19:55.803Z</time>
      </trkpt>
      <trkpt lat="43.06137" lon="0.20446">
        <ele>598.495062</ele>
        <time>2021-09-03T19:20:04.551Z</time>
      </trkpt>
      <trkpt lat="43.06167" lon="0.20461">
        <ele>595.096559</ele>
        <time>2021-09-03T19:20:12.292Z</time>
      </trkpt>
      <trkpt lat="43.06194" lon="0.20485">
        <ele>591.800872</ele>
        <time>2021-09-03T19:20:20.025Z</time>
      </trkpt>
      <trkpt lat="43.06235" lon="0.20536">
        <ele>586.169973</ele>
        <time>2021-09-03T19:20:33.002Z</time>
      </trkpt>
      <trkpt lat="43.06252" lon="0.20568">
        <ele>583.182208</ele>
        <time>2021-09-03T19:20:40.135Z</time>
      </trkpt>
      <trkpt lat="43.06259" lon="0.20615">
        <ele>579.593451</ele>
        <time>2021-09-03T19:20:48.855Z</time>
      </trkpt>
      <trkpt lat="43.06255" lon="0.20662">
        <ele>577.469248</ele>
        <time>2021-09-03T19:20:57.819Z</time>
      </trkpt>
      <trkpt lat="43.06253" lon="0.20688">
        <ele>576.919156</ele>
        <time>2021-09-03T19:21:02.685Z</time>
      </trkpt>
      <trkpt lat="43.06251" lon="0.20694">
        <ele>576.778319</ele>
        <time>2021-09-03T19:21:03.449Z</time>
      </trkpt>
      <trkpt lat="43.06247" lon="0.20704">
        <ele>576.54345</ele>
        <time>2021-09-03T19:21:06.058Z</time>
      </trkpt>
      <trkpt lat="43.06245" lon="0.20724">
        <ele>576.134089</ele>
        <time>2021-09-03T19:21:08.291Z</time>
      </trkpt>
      <trkpt lat="43.06248" lon="0.20749">
        <ele>575.593262</ele>
        <time>2021-09-03T19:21:11.444Z</time>
      </trkpt>
      <trkpt lat="43.06266" lon="0.20799">
        <ele>574.452388</ele>
        <time>2021-09-03T19:21:18.357Z</time>
      </trkpt>
      <trkpt lat="43.06262" lon="0.20888">
        <ele>573.257196</ele>
        <time>2021-09-03T19:21:31.938Z</time>
      </trkpt>
      <trkpt lat="43.06267" lon="0.20907">
        <ele>573.735203</ele>
        <time>2021-09-03T19:21:37.893Z</time>
      </trkpt>
      <trkpt lat="43.06269" lon="0.20909">
        <ele>573.812951</ele>
        <time>2021-09-03T19:21:40.663Z</time>
      </trkpt>
      <trkpt lat="43.06271" lon="0.20909">
        <ele>573.885765</ele>
        <time>2021-09-03T19:21:40.947Z</time>
      </trkpt>
      <trkpt lat="43.06286" lon="0.20871">
        <ele>574.929458</ele>
        <time>2021-09-03T19:21:51.899Z</time>
      </trkpt>
      <trkpt lat="43.06303" lon="0.20834">
        <ele>575.9909</ele>
        <time>2021-09-03T19:22:03.220Z</time>
      </trkpt>
      <trkpt lat="43.06311" lon="0.20818">
        <ele>576.474742</ele>
        <time>2021-09-03T19:22:09.409Z</time>
      </trkpt>
      <trkpt lat="43.06363" lon="0.20741">
        <ele>579.116255</ele>
        <time>2021-09-03T19:22:38.635Z</time>
      </trkpt>
      <trkpt lat="43.06397" lon="0.20702">
        <ele>581.785482</ele>
        <time>2021-09-03T19:22:56.467Z</time>
      </trkpt>
      <trkpt lat="43.06453" lon="0.20664">
        <ele>585.499831</ele>
        <time>2021-09-03T19:23:27.758Z</time>
      </trkpt>
      <trkpt lat="43.06462" lon="0.20665">
        <ele>586.029338</ele>
        <time>2021-09-03T19:23:32.072Z</time>
      </trkpt>
      <trkpt lat="43.06467" lon="0.20673">
        <ele>586.490354</ele>
        <time>2021-09-03T19:23:35.947Z</time>
      </trkpt>
      <trkpt lat="43.06481" lon="0.20717">
        <ele>588.61107</ele>
        <time>2021-09-03T19:23:53.395Z</time>
      </trkpt>
      <trkpt lat="43.06497" lon="0.20728">
        <ele>589.699684</ele>
        <time>2021-09-03T19:24:02.203Z</time>
      </trkpt>
      <trkpt lat="43.06499" lon="0.20746">
        <ele>590.54164</ele>
        <time>2021-09-03T19:24:08.457Z</time>
      </trkpt>
      <trkpt lat="43.06492" lon="0.20751">
        <ele>591.039263</ele>
        <time>2021-09-03T19:24:12.132Z</time>
      </trkpt>
      <trkpt lat="43.06441" lon="0.20783">
        <ele>594.542771</ele>
        <time>2021-09-03T19:24:37.434Z</time>
      </trkpt>
      <trkpt lat="43.06439" lon="0.20784">
        <ele>594.654825</ele>
        <time>2021-09-03T19:24:37.927Z</time>
      </trkpt>
      <trkpt lat="43.06418" lon="0.20801">
        <ele>596.20102</ele>
        <time>2021-09-03T19:24:49.481Z</time>
      </trkpt>
      <trkpt lat="43.06416" lon="0.20815">
        <ele>596.864715</ele>
        <time>2021-09-03T19:24:53.895Z</time>
      </trkpt>
      <trkpt lat="43.06437" lon="0.20848">
        <ele>598.851911</ele>
        <time>2021-09-03T19:25:07.963Z</time>
      </trkpt>
      <trkpt lat="43.06492" lon="0.20921">
        <ele>605.3925</ele>
        <time>2021-09-03T19:25:47.901Z</time>
      </trkpt>
      <trkpt lat="43.06497" lon="0.20947">
        <ele>607.440028</ele>
        <time>2021-09-03T19:25:58.716Z</time>
      </trkpt>
      <trkpt lat="43.0651" lon="0.20979">
        <ele>610.126725</ele>
        <time>2021-09-03T19:26:16.088Z</time>
      </trkpt>
      <trkpt lat="43.06521" lon="0.2098">
        <ele>611.227039</ele>
        <time>2021-09-03T19:26:22.148Z</time>
      </trkpt>
      <trkpt lat="43.06558" lon="0.20973">
        <ele>614.991567</ele>
        <time>2021-09-03T19:26:47.972Z</time>
      </trkpt>
      <trkpt lat="43.06563" lon="0.20972">
        <ele>615.535399</ele>
        <time>2021-09-03T19:26:52.341Z</time>
      </trkpt>
      <trkpt lat="43.06581" lon="0.20977">
        <ele>617.416679</ele>
        <time>2021-09-03T19:27:06.773Z</time>
      </trkpt>
      <trkpt lat="43.06619" lon="0.21001">
        <ele>622.362662</ele>
        <time>2021-09-03T19:27:37.344Z</time>
      </trkpt>
      <trkpt lat="43.06658" lon="0.21034">
        <ele>628.274088</ele>
        <time>2021-09-03T19:28:11.975Z</time>
      </trkpt>
      <trkpt lat="43.06655" lon="0.21056">
        <ele>630.362205</ele>
        <time>2021-09-03T19:28:25.678Z</time>
      </trkpt>
      <trkpt lat="43.06657" lon="0.21102">
        <ele>634.767139</ele>
        <time>2021-09-03T19:28:52.331Z</time>
      </trkpt>
      <trkpt lat="43.06664" lon="0.21143">
        <ele>638.752024</ele>
        <time>2021-09-03T19:29:13.955Z</time>
      </trkpt>
      <trkpt lat="43.06693" lon="0.21192">
        <ele>644.367128</ele>
        <time>2021-09-03T19:29:47.593Z</time>
      </trkpt>
      <trkpt lat="43.06696" lon="0.21214">
        <ele>646.213304</ele>
        <time>2021-09-03T19:30:00.530Z</time>
      </trkpt>
      <trkpt lat="43.06679" lon="0.21302">
        <ele>653.749599</ele>
        <time>2021-09-03T19:30:43.757Z</time>
      </trkpt>
      <trkpt lat="43.06669" lon="0.21337">
        <ele>656.809606</ele>
        <time>2021-09-03T19:31:00.947Z</time>
      </trkpt>
      <trkpt lat="43.06663" lon="0.21354">
        <ele>658.364764</ele>
        <time>2021-09-03T19:31:12.186Z</time>
      </trkpt>
      <trkpt lat="43.06613" lon="0.21498">
        <ele>670.224976</ele>
        <time>2021-09-03T19:32:30.800Z</time>
      </trkpt>
      <trkpt lat="43.06607" lon="0.21523">
        <ele>672.051425</ele>
        <time>2021-09-03T19:32:43.071Z</time>
      </trkpt>
      <trkpt lat="43.066" lon="0.21556">
        <ele>674.41596</ele>
        <time>2021-09-03T19:32:58.336Z</time>
      </trkpt>
      <trkpt lat="43.06559" lon="0.21705">
        <ele>682.781584</ele>
        <time>2021-09-03T19:33:59.888Z</time>
      </trkpt>
      <trkpt lat="43.06537" lon="0.21762">
        <ele>685.049692</ele>
        <time>2021-09-03T19:34:20.007Z</time>
      </trkpt>
      <trkpt lat="43.06494" lon="0.21847">
        <ele>688.658255</ele>
        <time>2021-09-03T19:34:46.597Z</time>
      </trkpt>
      <trkpt lat="43.06527" lon="0.21861">
        <ele>688.946268</ele>
        <time>2021-09-03T19:34:57.575Z</time>
      </trkpt>
      <trkpt lat="43.06588" lon="0.2192">
        <ele>689.569515</ele>
        <time>2021-09-03T19:35:18.374Z</time>
      </trkpt>
      <trkpt lat="43.06632" lon="0.21953">
        <ele>689.98579</ele>
        <time>2021-09-03T19:35:29.964Z</time>
      </trkpt>
      <trkpt lat="43.0667" lon="0.21992">
        <ele>689.739071</ele>
        <time>2021-09-03T19:35:39.416Z</time>
      </trkpt>
      <trkpt lat="43.0673" lon="0.22075">
        <ele>688.604281</ele>
        <time>2021-09-03T19:35:55.898Z</time>
      </trkpt>
      <trkpt lat="43.06771" lon="0.22159">
        <ele>687.536621</ele>
        <time>2021-09-03T19:36:10.114Z</time>
      </trkpt>
      <trkpt lat="43.06811" lon="0.223">
        <ele>684.982664</ele>
        <time>2021-09-03T19:36:30.501Z</time>
      </trkpt>
      <trkpt lat="43.06851" lon="0.22469">
        <ele>680.958739</ele>
        <time>2021-09-03T19:36:52.757Z</time>
      </trkpt>
      <trkpt lat="43.06855" lon="0.22481">
        <ele>680.594946</ele>
        <time>2021-09-03T19:36:54.282Z</time>
      </trkpt>
      <trkpt lat="43.06866" lon="0.22519">
        <ele>679.448452</ele>
        <time>2021-09-03T19:36:59.087Z</time>
      </trkpt>
      <trkpt lat="43.06874" lon="0.22564">
        <ele>678.157612</ele>
        <time>2021-09-03T19:37:04.432Z</time>
      </trkpt>
      <trkpt lat="43.06875" lon="0.22588">
        <ele>677.503378</ele>
        <time>2021-09-03T19:37:07.059Z</time>
      </trkpt>
      <trkpt lat="43.06874" lon="0.22609">
        <ele>676.926691</ele>
        <time>2021-09-03T19:37:09.483Z</time>
      </trkpt>
      <trkpt lat="43.0685" lon="0.22685">
        <ele>673.473874</ele>
        <time>2021-09-03T19:37:18.697Z</time>
      </trkpt>
      <trkpt lat="43.06833" lon="0.22732">
        <ele>671.279872</ele>
        <time>2021-09-03T19:37:24.271Z</time>
      </trkpt>
      <trkpt lat="43.06819" lon="0.22772">
        <ele>669.358195</ele>
        <time>2021-09-03T19:37:29.133Z</time>
      </trkpt>
      <trkpt lat="43.06812" lon="0.22795">
        <ele>668.311175</ele>
        <time>2021-09-03T19:37:31.793Z</time>
      </trkpt>
      <trkpt lat="43.06793" lon="0.22832">
        <ele>666.396632</ele>
        <time>2021-09-03T19:37:36.826Z</time>
      </trkpt>
      <trkpt lat="43.06771" lon="0.22887">
        <ele>661.64913</ele>
        <time>2021-09-03T19:37:43.560Z</time>
      </trkpt>
      <trkpt lat="43.06756" lon="0.22932">
        <ele>657.802869</ele>
        <time>2021-09-03T19:37:48.788Z</time>
      </trkpt>
      <trkpt lat="43.06725" lon="0.23002">
        <ele>651.500631</ele>
        <time>2021-09-03T19:37:57.151Z</time>
      </trkpt>
      <trkpt lat="43.06681" lon="0.23023">
        <ele>646.160591</ele>
        <time>2021-09-03T19:38:03.551Z</time>
      </trkpt>
      <trkpt lat="43.06669" lon="0.23036">
        <ele>643.679671</ele>
        <time>2021-09-03T19:38:05.622Z</time>
      </trkpt>
      <trkpt lat="43.06636" lon="0.23114">
        <ele>632.817265</ele>
        <time>2021-09-03T19:38:14.573Z</time>
      </trkpt>
      <trkpt lat="43.06606" lon="0.2321">
        <ele>620.256347</ele>
        <time>2021-09-03T19:38:24.749Z</time>
      </trkpt>
      <trkpt lat="43.06565" lon="0.23374">
        <ele>599.718843</ele>
        <time>2021-09-03T19:38:41.703Z</time>
      </trkpt>
      <trkpt lat="43.06562" lon="0.23394">
        <ele>597.258828</ele>
        <time>2021-09-03T19:38:43.721Z</time>
      </trkpt>
      <trkpt lat="43.06544" lon="0.23504">
        <ele>585.386538</ele>
        <time>2021-09-03T19:38:54.975Z</time>
      </trkpt>
      <trkpt lat="43.06521" lon="0.23619">
        <ele>575.550497</ele>
        <time>2021-09-03T19:39:07.257Z</time>
      </trkpt>
      <trkpt lat="43.06485" lon="0.23795">
        <ele>559.861777</ele>
        <time>2021-09-03T19:39:26.315Z</time>
      </trkpt>
      <trkpt lat="43.06464" lon="0.23857">
        <ele>553.797079</ele>
        <time>2021-09-03T19:39:33.191Z</time>
      </trkpt>
      <trkpt lat="43.06456" lon="0.23863">
        <ele>552.783616</ele>
        <time>2021-09-03T19:39:34.346Z</time>
      </trkpt>
      <trkpt lat="43.06405" lon="0.23849">
        <ele>546.396367</ele>
        <time>2021-09-03T19:39:41.594Z</time>
      </trkpt>
      <trkpt lat="43.0638" lon="0.23854">
        <ele>543.166818</ele>
        <time>2021-09-03T19:39:45.000Z</time>
      </trkpt>
      <trkpt lat="43.0633" lon="0.23888">
        <ele>535.98622</ele>
        <time>2021-09-03T19:39:52.643Z</time>
      </trkpt>
      <trkpt lat="43.06316" lon="0.23897">
        <ele>533.955728</ele>
        <time>2021-09-03T19:39:54.689Z</time>
      </trkpt>
      <trkpt lat="43.06313" lon="0.23898">
        <ele>533.544351</ele>
        <time>2021-09-03T19:39:55.095Z</time>
      </trkpt>
      <trkpt lat="43.06258" lon="0.23916">
        <ele>526.287108</ele>
        <time>2021-09-03T19:40:02.607Z</time>
      </trkpt>
      <trkpt lat="43.06254" lon="0.23918">
        <ele>525.773477</ele>
        <time>2021-09-03T19:40:03.116Z</time>
      </trkpt>
      <trkpt lat="43.06253" lon="0.2392">
        <ele>525.46034</ele>
        <time>2021-09-03T19:40:03.436Z</time>
      </trkpt>
      <trkpt lat="43.06241" lon="0.2396">
        <ele>521.67282</ele>
        <time>2021-09-03T19:40:07.843Z</time>
      </trkpt>
      <trkpt lat="43.06191" lon="0.24059">
        <ele>511.799461</ele>
        <time>2021-09-03T19:40:20.189Z</time>
      </trkpt>
      <trkpt lat="43.06179" lon="0.24112">
        <ele>507.247108</ele>
        <time>2021-09-03T19:40:25.952Z</time>
      </trkpt>
      <trkpt lat="43.06167" lon="0.2417">
        <ele>502.233719</ele>
        <time>2021-09-03T19:40:32.146Z</time>
      </trkpt>
      <trkpt lat="43.06178" lon="0.24175">
        <ele>500.708906</ele>
        <time>2021-09-03T19:40:34.841Z</time>
      </trkpt>
      <trkpt lat="43.06194" lon="0.24186">
        <ele>498.241373</ele>
        <time>2021-09-03T19:40:39.293Z</time>
      </trkpt>
      <trkpt lat="43.06213" lon="0.24276">
        <ele>488.958059</ele>
        <time>2021-09-03T19:40:55.436Z</time>
      </trkpt>
      <trkpt lat="43.06277" lon="0.2433">
        <ele>478.748591</ele>
        <time>2021-09-03T19:41:12.843Z</time>
      </trkpt>
      <trkpt lat="43.0629" lon="0.24372">
        <ele>473.113346</ele>
        <time>2021-09-03T19:41:20.452Z</time>
      </trkpt>
      <trkpt lat="43.06298" lon="0.2442">
        <ele>466.960056</ele>
        <time>2021-09-03T19:41:28.489Z</time>
      </trkpt>
      <trkpt lat="43.06304" lon="0.24536">
        <ele>452.381065</ele>
        <time>2021-09-03T19:41:47.760Z</time>
      </trkpt>
      <trkpt lat="43.063" lon="0.24561">
        <ele>449.173004</ele>
        <time>2021-09-03T19:41:51.953Z</time>
      </trkpt>
      <trkpt lat="43.06317" lon="0.24562">
        <ele>447.124516</ele>
        <time>2021-09-03T19:41:55.914Z</time>
      </trkpt>
      <trkpt lat="43.06319" lon="0.24579">
        <ele>446.085529</ele>
        <time>2021-09-03T19:41:58.737Z</time>
      </trkpt>
      <trkpt lat="43.06319" lon="0.24582">
        <ele>445.932434</ele>
        <time>2021-09-03T19:41:58.980Z</time>
      </trkpt>
      <trkpt lat="43.06307" lon="0.24597">
        <ele>444.623935</ele>
        <time>2021-09-03T19:42:01.205Z</time>
      </trkpt>
      <trkpt lat="43.06268" lon="0.24594">
        <ele>441.444581</ele>
        <time>2021-09-03T19:42:06.422Z</time>
      </trkpt>
      <trkpt lat="43.06264" lon="0.24597">
        <ele>441.039844</ele>
        <time>2021-09-03T19:42:07.075Z</time>
      </trkpt>
      <trkpt lat="43.06238" lon="0.24593">
        <ele>438.913198</ele>
        <time>2021-09-03T19:42:10.655Z</time>
      </trkpt>
      <trkpt lat="43.06171" lon="0.2459">
        <ele>433.374718</ele>
        <time>2021-09-03T19:42:21.180Z</time>
      </trkpt>
      <trkpt lat="43.0613" lon="0.24594">
        <ele>433.978858</ele>
        <time>2021-09-03T19:42:35.396Z</time>
      </trkpt>
      <trkpt lat="43.06077" lon="0.24609">
        <ele>435.242422</ele>
        <time>2021-09-03T19:42:53.690Z</time>
      </trkpt>
      <trkpt lat="43.06069" lon="0.24614">
        <ele>435.459058</ele>
        <time>2021-09-03T19:42:57.176Z</time>
      </trkpt>
      <trkpt lat="43.06053" lon="0.24619">
        <ele>435.836537</ele>
        <time>2021-09-03T19:43:03.498Z</time>
      </trkpt>
      <trkpt lat="43.06019" lon="0.24613">
        <ele>436.653557</ele>
        <time>2021-09-03T19:43:15.907Z</time>
      </trkpt>
      <trkpt lat="43.06005" lon="0.24606">
        <ele>437.008568</ele>
        <time>2021-09-03T19:43:20.598Z</time>
      </trkpt>
      <trkpt lat="43.0599" lon="0.24607">
        <ele>437.362922</ele>
        <time>2021-09-03T19:43:26.443Z</time>
      </trkpt>
      <trkpt lat="43.05941" lon="0.24645">
        <ele>438.515235</ele>
        <time>2021-09-03T19:43:45.611Z</time>
      </trkpt>
      <trkpt lat="43.05878" lon="0.24646">
        <ele>439.805817</ele>
        <time>2021-09-03T19:44:03.642Z</time>
      </trkpt>
      <trkpt lat="43.05848" lon="0.24653">
        <ele>440.423032</ele>
        <time>2021-09-03T19:44:10.668Z</time>
      </trkpt>
      <trkpt lat="43.05734" lon="0.24746">
        <ele>443.831574</ele>
        <time>2021-09-03T19:44:51.574Z</time>
      </trkpt>
      <trkpt lat="43.0568" lon="0.2481">
        <ele>445.780876</ele>
        <time>2021-09-03T19:45:17.718Z</time>
      </trkpt>
      <trkpt lat="43.05657" lon="0.24847">
        <ele>447.012856</ele>
        <time>2021-09-03T19:45:31.511Z</time>
      </trkpt>
      <trkpt lat="43.05643" lon="0.24881">
        <ele>448.040014</ele>
        <time>2021-09-03T19:45:42.166Z</time>
      </trkpt>
      <trkpt lat="43.05643" lon="0.24891">
        <ele>448.307652</ele>
        <time>2021-09-03T19:45:44.884Z</time>
      </trkpt>
      <trkpt lat="43.05678" lon="0.24938">
        <ele>450.04877</ele>
        <time>2021-09-03T19:46:01.714Z</time>
      </trkpt>
      <trkpt lat="43.05681" lon="0.24959">
        <ele>450.611929</ele>
        <time>2021-09-03T19:46:06.902Z</time>
      </trkpt>
      <trkpt lat="43.05665" lon="0.24965">
        <ele>451.192098</ele>
        <time>2021-09-03T19:46:11.965Z</time>
      </trkpt>
      <trkpt lat="43.05634" lon="0.24964">
        <ele>452.311844</ele>
        <time>2021-09-03T19:46:22.712Z</time>
      </trkpt>
      <trkpt lat="43.05595" lon="0.24964">
        <ele>454.792198</ele>
        <time>2021-09-03T19:46:40.707Z</time>
      </trkpt>
      <trkpt lat="43.05587" lon="0.24968">
        <ele>455.332244</ele>
        <time>2021-09-03T19:46:43.780Z</time>
      </trkpt>
      <trkpt lat="43.05553" lon="0.25007">
        <ele>458.134402</ele>
        <time>2021-09-03T19:47:03.297Z</time>
      </trkpt>
      <trkpt lat="43.0552" lon="0.25057">
        <ele>461.279247</ele>
        <time>2021-09-03T19:47:26.816Z</time>
      </trkpt>
      <trkpt lat="43.05517" lon="0.25065">
        <ele>461.721573</ele>
        <time>2021-09-03T19:47:33.590Z</time>
      </trkpt>
      <trkpt lat="43.05508" lon="0.25151">
        <ele>466.296558</ele>
        <time>2021-09-03T19:48:06.788Z</time>
      </trkpt>
      <trkpt lat="43.05522" lon="0.25264">
        <ele>473.147072</ele>
        <time>2021-09-03T19:49:01.893Z</time>
      </trkpt>
      <trkpt lat="43.05518" lon="0.25303">
        <ele>475.466768</ele>
        <time>2021-09-03T19:49:14.883Z</time>
      </trkpt>
      <trkpt lat="43.05508" lon="0.2531">
        <ele>476.400765</ele>
        <time>2021-09-03T19:49:20.666Z</time>
      </trkpt>
      <trkpt lat="43.055" lon="0.25308">
        <ele>477.098297</ele>
        <time>2021-09-03T19:49:24.209Z</time>
      </trkpt>
      <trkpt lat="43.0547" lon="0.25277">
        <ele>479.545708</ele>
        <time>2021-09-03T19:49:40.044Z</time>
      </trkpt>
      <trkpt lat="43.05453" lon="0.2527">
        <ele>480.509101</ele>
        <time>2021-09-03T19:49:47.411Z</time>
      </trkpt>
      <trkpt lat="43.05451" lon="0.25271">
        <ele>480.637229</ele>
        <time>2021-09-03T19:49:49.027Z</time>
      </trkpt>
      <trkpt lat="43.05427" lon="0.25253">
        <ele>482.100285</ele>
        <time>2021-09-03T19:49:59.112Z</time>
      </trkpt>
      <trkpt lat="43.05408" lon="0.25242">
        <ele>483.143341</ele>
        <time>2021-09-03T19:50:07.412Z</time>
      </trkpt>
      <trkpt lat="43.05391" lon="0.25244">
        <ele>484.059038</ele>
        <time>2021-09-03T19:50:13.934Z</time>
      </trkpt>
      <trkpt lat="43.05374" lon="0.25255">
        <ele>485.06354</ele>
        <time>2021-09-03T19:50:22.017Z</time>
      </trkpt>
      <trkpt lat="43.05307" lon="0.25318">
        <ele>490.782279</ele>
        <time>2021-09-03T19:50:56.502Z</time>
      </trkpt>
      <trkpt lat="43.05284" lon="0.25358">
        <ele>494.816281</ele>
        <time>2021-09-03T19:51:20.206Z</time>
      </trkpt>
      <trkpt lat="43.05278" lon="0.2538">
        <ele>496.722148</ele>
        <time>2021-09-03T19:51:33.266Z</time>
      </trkpt>
      <trkpt lat="43.0528" lon="0.25399">
        <ele>498.266558</ele>
        <time>2021-09-03T19:51:41.555Z</time>
      </trkpt>
      <trkpt lat="43.05303" lon="0.25542">
        <ele>509.642656</ele>
        <time>2021-09-03T19:53:03.163Z</time>
      </trkpt>
      <trkpt lat="43.05303" lon="0.25549">
        <ele>510.049955</ele>
        <time>2021-09-03T19:53:08.327Z</time>
      </trkpt>
      <trkpt lat="43.05303" lon="0.25554">
        <ele>510.42422</ele>
        <time>2021-09-03T19:53:10.791Z</time>
      </trkpt>
      <trkpt lat="43.05303" lon="0.25565">
        <ele>511.125667</ele>
        <time>2021-09-03T19:53:17.680Z</time>
      </trkpt>
      <trkpt lat="43.05297" lon="0.25583">
        <ele>512.480512</ele>
        <time>2021-09-03T19:53:24.357Z</time>
      </trkpt>
      <trkpt lat="43.0528" lon="0.256">
        <ele>514.411852</ele>
        <time>2021-09-03T19:53:42.065Z</time>
      </trkpt>
      <trkpt lat="43.0524" lon="0.25563">
        <ele>518.845008</ele>
        <time>2021-09-03T19:54:07.944Z</time>
      </trkpt>
      <trkpt lat="43.05198" lon="0.25499">
        <ele>524.169906</ele>
        <time>2021-09-03T19:54:40.882Z</time>
      </trkpt>
      <trkpt lat="43.05175" lon="0.25482">
        <ele>524.249917</ele>
        <time>2021-09-03T19:54:46.168Z</time>
      </trkpt>
      <trkpt lat="43.05155" lon="0.25469">
        <ele>524.314746</ele>
        <time>2021-09-03T19:54:50.290Z</time>
      </trkpt>
      <trkpt lat="43.05128" lon="0.25464">
        <ele>524.396372</ele>
        <time>2021-09-03T19:54:55.436Z</time>
      </trkpt>
      <trkpt lat="43.05088" lon="0.25471">
        <ele>524.51747</ele>
        <time>2021-09-03T19:55:02.913Z</time>
      </trkpt>
      <trkpt lat="43.04944" lon="0.25556">
        <ele>525.900315</ele>
        <time>2021-09-03T19:55:35.666Z</time>
      </trkpt>
      <trkpt lat="43.04871" lon="0.25619">
        <ele>527.130588</ele>
        <time>2021-09-03T19:56:03.913Z</time>
      </trkpt>
      <trkpt lat="43.0483" lon="0.25666">
        <ele>530.493898</ele>
        <time>2021-09-03T19:56:24.738Z</time>
      </trkpt>
      <trkpt lat="43.04765" lon="0.25758">
        <ele>536.317616</ele>
        <time>2021-09-03T19:57:14.987Z</time>
      </trkpt>
      <trkpt lat="43.04735" lon="0.25814">
        <ele>539.491046</ele>
        <time>2021-09-03T19:57:40.223Z</time>
      </trkpt>
      <trkpt lat="43.04725" lon="0.25837">
        <ele>540.664874</ele>
        <time>2021-09-03T19:57:51.288Z</time>
      </trkpt>
      <trkpt lat="43.04709" lon="0.25872">
        <ele>542.552086</ele>
        <time>2021-09-03T19:58:06.289Z</time>
      </trkpt>
      <trkpt lat="43.04697" lon="0.25885">
        <ele>543.442974</ele>
        <time>2021-09-03T19:58:12.669Z</time>
      </trkpt>
      <trkpt lat="43.04653" lon="0.25907">
        <ele>546.348011</ele>
        <time>2021-09-03T19:58:34.397Z</time>
      </trkpt>
      <trkpt lat="43.04585" lon="0.25934">
        <ele>550.712901</ele>
        <time>2021-09-03T19:59:05.246Z</time>
      </trkpt>
      <trkpt lat="43.04531" lon="0.2597">
        <ele>554.564665</ele>
        <time>2021-09-03T19:59:27.797Z</time>
      </trkpt>
      <trkpt lat="43.04492" lon="0.26023">
        <ele>558.069936</ele>
        <time>2021-09-03T19:59:53.802Z</time>
      </trkpt>
      <trkpt lat="43.04452" lon="0.26095">
        <ele>563.668747</ele>
        <time>2021-09-03T20:00:32.397Z</time>
      </trkpt>
      <trkpt lat="43.04353" lon="0.26195">
        <ele>578.096697</ele>
        <time>2021-09-03T20:02:01.109Z</time>
      </trkpt>
      <trkpt lat="43.04291" lon="0.26287">
        <ele>585.679923</ele>
        <time>2021-09-03T20:03:08.969Z</time>
      </trkpt>
      <trkpt lat="43.04274" lon="0.26291">
        <ele>586.809711</ele>
        <time>2021-09-03T20:03:20.233Z</time>
      </trkpt>
      <trkpt lat="43.04247" lon="0.26261">
        <ele>589.101999</ele>
        <time>2021-09-03T20:03:37.506Z</time>
      </trkpt>
      <trkpt lat="43.04213" lon="0.26156">
        <ele>592.846028</ele>
        <time>2021-09-03T20:03:59.952Z</time>
      </trkpt>
      <trkpt lat="43.04207" lon="0.26123">
        <ele>591.77919</ele>
        <time>2021-09-03T20:04:04.084Z</time>
      </trkpt>
      <trkpt lat="43.04194" lon="0.26052">
        <ele>589.458436</ele>
        <time>2021-09-03T20:04:11.609Z</time>
      </trkpt>
      <trkpt lat="43.04188" lon="0.25938">
        <ele>585.831655</ele>
        <time>2021-09-03T20:04:24.012Z</time>
      </trkpt>
      <trkpt lat="43.04176" lon="0.25909">
        <ele>586.231119</ele>
        <time>2021-09-03T20:04:27.538Z</time>
      </trkpt>
      <trkpt lat="43.04154" lon="0.25912">
        <ele>586.705067</ele>
        <time>2021-09-03T20:04:33.070Z</time>
      </trkpt>
      <trkpt lat="43.04147" lon="0.25922">
        <ele>586.940112</ele>
        <time>2021-09-03T20:04:34.563Z</time>
      </trkpt>
      <trkpt lat="43.04127" lon="0.25981">
        <ele>587.984291</ele>
        <time>2021-09-03T20:04:51.165Z</time>
      </trkpt>
      <trkpt lat="43.04118" lon="0.26014">
        <ele>588.546863</ele>
        <time>2021-09-03T20:04:59.734Z</time>
      </trkpt>
      <trkpt lat="43.04077" lon="0.26093">
        <ele>591.241908</ele>
        <time>2021-09-03T20:05:36.503Z</time>
      </trkpt>
      <trkpt lat="43.0398" lon="0.26203">
        <ele>601.821295</ele>
        <time>2021-09-03T20:06:55.476Z</time>
      </trkpt>
      <trkpt lat="43.03949" lon="0.26215">
        <ele>604.517718</ele>
        <time>2021-09-03T20:07:10.658Z</time>
      </trkpt>
      <trkpt lat="43.03938" lon="0.26211">
        <ele>605.181327</ele>
        <time>2021-09-03T20:07:15.386Z</time>
      </trkpt>
      <trkpt lat="43.03919" lon="0.26191">
        <ele>606.398977</ele>
        <time>2021-09-03T20:07:25.458Z</time>
      </trkpt>
      <trkpt lat="43.03899" lon="0.26183">
        <ele>607.472355</ele>
        <time>2021-09-03T20:07:33.703Z</time>
      </trkpt>
      <trkpt lat="43.03887" lon="0.26192">
        <ele>608.149818</ele>
        <time>2021-09-03T20:07:39.571Z</time>
      </trkpt>
      <trkpt lat="43.0385" lon="0.26267">
        <ele>611.548681</ele>
        <time>2021-09-03T20:08:08.084Z</time>
      </trkpt>
      <trkpt lat="43.03828" lon="0.26366">
        <ele>614.071293</ele>
        <time>2021-09-03T20:08:38.794Z</time>
      </trkpt>
      <trkpt lat="43.03826" lon="0.26375">
        <ele>614.091709</ele>
        <time>2021-09-03T20:08:42.922Z</time>
      </trkpt>
      <trkpt lat="43.0382" lon="0.26388">
        <ele>614.126972</ele>
        <time>2021-09-03T20:08:45.524Z</time>
      </trkpt>
      <trkpt lat="43.03814" lon="0.26398">
        <ele>614.158651</ele>
        <time>2021-09-03T20:08:47.652Z</time>
      </trkpt>
      <trkpt lat="43.03804" lon="0.26414">
        <ele>614.204799</ele>
        <time>2021-09-03T20:08:53.543Z</time>
      </trkpt>
      <trkpt lat="43.0379" lon="0.26435">
        <ele>614.271678</ele>
        <time>2021-09-03T20:08:57.271Z</time>
      </trkpt>
      <trkpt lat="43.03789" lon="0.26436">
        <ele>614.276565</ele>
        <time>2021-09-03T20:08:58.260Z</time>
      </trkpt>
      <trkpt lat="43.03758" lon="0.26468">
        <ele>614.396569</ele>
        <time>2021-09-03T20:09:06.176Z</time>
      </trkpt>
      <trkpt lat="43.0375" lon="0.26477">
        <ele>614.430892</ele>
        <time>2021-09-03T20:09:09.687Z</time>
      </trkpt>
      <trkpt lat="43.03741" lon="0.26494">
        <ele>614.478445</ele>
        <time>2021-09-03T20:09:12.088Z</time>
      </trkpt>
      <trkpt lat="43.03731" lon="0.26524">
        <ele>614.435179</ele>
        <time>2021-09-03T20:09:15.942Z</time>
      </trkpt>
      <trkpt lat="43.03702" lon="0.26584">
        <ele>610.794803</ele>
        <time>2021-09-03T20:09:23.815Z</time>
      </trkpt>
      <trkpt lat="43.03684" lon="0.26618">
        <ele>608.672693</ele>
        <time>2021-09-03T20:09:28.279Z</time>
      </trkpt>
      <trkpt lat="43.03645" lon="0.26657">
        <ele>605.316395</ele>
        <time>2021-09-03T20:09:35.263Z</time>
      </trkpt>
      <trkpt lat="43.03646" lon="0.26666">
        <ele>604.874692</ele>
        <time>2021-09-03T20:09:36.079Z</time>
      </trkpt>
      <trkpt lat="43.03649" lon="0.26671">
        <ele>604.529049</ele>
        <time>2021-09-03T20:09:36.732Z</time>
      </trkpt>
      <trkpt lat="43.0377" lon="0.2663">
        <ele>593.293794</ele>
        <time>2021-09-03T20:09:53.857Z</time>
      </trkpt>
      <trkpt lat="43.03784" lon="0.2663">
        <ele>591.976278</ele>
        <time>2021-09-03T20:09:55.653Z</time>
      </trkpt>
      <trkpt lat="43.03792" lon="0.26636">
        <ele>591.094625</ele>
        <time>2021-09-03T20:09:56.814Z</time>
      </trkpt>
      <trkpt lat="43.03812" lon="0.2668">
        <ele>587.367824</ele>
        <time>2021-09-03T20:10:02.098Z</time>
      </trkpt>
      <trkpt lat="43.03837" lon="0.2676">
        <ele>581.021629</ele>
        <time>2021-09-03T20:10:10.747Z</time>
      </trkpt>
      <trkpt lat="43.03836" lon="0.26774">
        <ele>579.983628</ele>
        <time>2021-09-03T20:10:12.078Z</time>
      </trkpt>
      <trkpt lat="43.03813" lon="0.26838">
        <ele>574.716552</ele>
        <time>2021-09-03T20:10:18.993Z</time>
      </trkpt>
      <trkpt lat="43.03792" lon="0.2692">
        <ele>568.218909</ele>
        <time>2021-09-03T20:10:27.677Z</time>
      </trkpt>
      <trkpt lat="43.03775" lon="0.27002">
        <ele>563.466989</ele>
        <time>2021-09-03T20:10:36.336Z</time>
      </trkpt>
      <trkpt lat="43.03765" lon="0.27162">
        <ele>556.04386</ele>
        <time>2021-09-03T20:10:53.503Z</time>
      </trkpt>
      <trkpt lat="43.03754" lon="0.27237">
        <ele>553.64693</ele>
        <time>2021-09-03T20:11:02.774Z</time>
      </trkpt>
      <trkpt lat="43.03757" lon="0.27255">
        <ele>553.225316</ele>
        <time>2021-09-03T20:11:04.993Z</time>
      </trkpt>
      <trkpt lat="43.03762" lon="0.27258">
        <ele>553.056307</ele>
        <time>2021-09-03T20:11:05.775Z</time>
      </trkpt>
      <trkpt lat="43.03766" lon="0.27258">
        <ele>552.935877</ele>
        <time>2021-09-03T20:11:07.211Z</time>
      </trkpt>
      <trkpt lat="43.03821" lon="0.27184">
        <ele>550.487025</ele>
        <time>2021-09-03T20:11:20.385Z</time>
      </trkpt>
      <trkpt lat="43.03852" lon="0.27161">
        <ele>549.388861</ele>
        <time>2021-09-03T20:11:26.167Z</time>
      </trkpt>
      <trkpt lat="43.03862" lon="0.27128">
        <ele>547.930319</ele>
        <time>2021-09-03T20:11:30.278Z</time>
      </trkpt>
      <trkpt lat="43.03873" lon="0.27114">
        <ele>546.961464</ele>
        <time>2021-09-03T20:11:32.717Z</time>
      </trkpt>
      <trkpt lat="43.03886" lon="0.27109">
        <ele>546.019636</ele>
        <time>2021-09-03T20:11:34.873Z</time>
      </trkpt>
      <trkpt lat="43.03911" lon="0.27122">
        <ele>544.217631</ele>
        <time>2021-09-03T20:11:38.872Z</time>
      </trkpt>
      <trkpt lat="43.03929" lon="0.27147">
        <ele>542.496669</ele>
        <time>2021-09-03T20:11:42.557Z</time>
      </trkpt>
      <trkpt lat="43.03931" lon="0.27162">
        <ele>541.762888</ele>
        <time>2021-09-03T20:11:44.101Z</time>
      </trkpt>
      <trkpt lat="43.03919" lon="0.27221">
        <ele>538.725529</ele>
        <time>2021-09-03T20:11:50.391Z</time>
      </trkpt>
      <trkpt lat="43.0392" lon="0.27236">
        <ele>537.988315</ele>
        <time>2021-09-03T20:11:51.902Z</time>
      </trkpt>
      <trkpt lat="43.03928" lon="0.27291">
        <ele>534.358185</ele>
        <time>2021-09-03T20:11:57.435Z</time>
      </trkpt>
      <trkpt lat="43.03925" lon="0.27338">
        <ele>530.890842</ele>
        <time>2021-09-03T20:12:02.070Z</time>
      </trkpt>
      <trkpt lat="43.03927" lon="0.27387">
        <ele>527.233884</ele>
        <time>2021-09-03T20:12:06.953Z</time>
      </trkpt>
      <trkpt lat="43.03946" lon="0.27496">
        <ele>518.95266</ele>
        <time>2021-09-03T20:12:18.034Z</time>
      </trkpt>
      <trkpt lat="43.03965" lon="0.27516">
        <ele>516.966615</ele>
        <time>2021-09-03T20:12:21.329Z</time>
      </trkpt>
      <trkpt lat="43.04004" lon="0.27534">
        <ele>513.690715</ele>
        <time>2021-09-03T20:12:26.913Z</time>
      </trkpt>
      <trkpt lat="43.04071" lon="0.27619">
        <ele>506.248416</ele>
        <time>2021-09-03T20:12:39.872Z</time>
      </trkpt>
      <trkpt lat="43.04085" lon="0.27624">
        <ele>505.060988</ele>
        <time>2021-09-03T20:12:41.991Z</time>
      </trkpt>
      <trkpt lat="43.04116" lon="0.27615">
        <ele>502.930524</ele>
        <time>2021-09-03T20:12:46.573Z</time>
      </trkpt>
      <trkpt lat="43.04133" lon="0.27622">
        <ele>501.843247</ele>
        <time>2021-09-03T20:12:49.165Z</time>
      </trkpt>
      <trkpt lat="43.0414" lon="0.27633">
        <ele>501.200832</ele>
        <time>2021-09-03T20:12:50.697Z</time>
      </trkpt>
      <trkpt lat="43.04141" lon="0.27652">
        <ele>500.354834</ele>
        <time>2021-09-03T20:12:52.718Z</time>
      </trkpt>
      <trkpt lat="43.04132" lon="0.27737">
        <ele>496.513161</ele>
        <time>2021-09-03T20:13:01.978Z</time>
      </trkpt>
      <trkpt lat="43.04122" lon="0.27773">
        <ele>494.749468</ele>
        <time>2021-09-03T20:13:06.188Z</time>
      </trkpt>
      <trkpt lat="43.04108" lon="0.27807">
        <ele>493.038976</ele>
        <time>2021-09-03T20:13:10.261Z</time>
      </trkpt>
      <trkpt lat="43.04087" lon="0.27839">
        <ele>491.003429</ele>
        <time>2021-09-03T20:13:14.883Z</time>
      </trkpt>
      <trkpt lat="43.04069" lon="0.27884">
        <ele>488.616116</ele>
        <time>2021-09-03T20:13:20.263Z</time>
      </trkpt>
      <trkpt lat="43.04033" lon="0.27916">
        <ele>485.9011</ele>
        <time>2021-09-03T20:13:26.459Z</time>
      </trkpt>
      <trkpt lat="43.04028" lon="0.27917">
        <ele>485.535843</ele>
        <time>2021-09-03T20:13:27.243Z</time>
      </trkpt>
      <trkpt lat="43.04022" lon="0.27915">
        <ele>485.179026</ele>
        <time>2021-09-03T20:13:28.021Z</time>
      </trkpt>
      <trkpt lat="43.03998" lon="0.27889">
        <ele>483.241192</ele>
        <time>2021-09-03T20:13:32.506Z</time>
      </trkpt>
      <trkpt lat="43.03984" lon="0.27887">
        <ele>482.333875</ele>
        <time>2021-09-03T20:13:34.642Z</time>
      </trkpt>
      <trkpt lat="43.03974" lon="0.2789">
        <ele>481.723509</ele>
        <time>2021-09-03T20:13:36.140Z</time>
      </trkpt>
      <trkpt lat="43.03951" lon="0.27922">
        <ele>480.454033</ele>
        <time>2021-09-03T20:13:41.013Z</time>
      </trkpt>
      <trkpt lat="43.03933" lon="0.27954">
        <ele>479.311852</ele>
        <time>2021-09-03T20:13:45.472Z</time>
      </trkpt>
      <trkpt lat="43.03918" lon="0.27997">
        <ele>477.954587</ele>
        <time>2021-09-03T20:13:50.819Z</time>
      </trkpt>
      <trkpt lat="43.03917" lon="0.28072">
        <ele>475.858983</ele>
        <time>2021-09-03T20:13:59.767Z</time>
      </trkpt>
      <trkpt lat="43.03911" lon="0.28118">
        <ele>474.755295</ele>
        <time>2021-09-03T20:14:06.008Z</time>
      </trkpt>
      <trkpt lat="43.03904" lon="0.2814">
        <ele>474.584119</ele>
        <time>2021-09-03T20:14:09.547Z</time>
      </trkpt>
      <trkpt lat="43.03889" lon="0.28173">
        <ele>474.317898</ele>
        <time>2021-09-03T20:14:15.409Z</time>
      </trkpt>
      <trkpt lat="43.03883" lon="0.28196">
        <ele>474.144602</ele>
        <time>2021-09-03T20:14:19.372Z</time>
      </trkpt>
      <trkpt lat="43.03904" lon="0.28238">
        <ele>473.790669</ele>
        <time>2021-09-03T20:14:27.340Z</time>
      </trkpt>
      <trkpt lat="43.0393" lon="0.28266">
        <ele>473.467453</ele>
        <time>2021-09-03T20:14:34.167Z</time>
      </trkpt>
      <trkpt lat="43.03963" lon="0.28282">
        <ele>473.130609</ele>
        <time>2021-09-03T20:14:40.839Z</time>
      </trkpt>
      <trkpt lat="43.04002" lon="0.28294">
        <ele>471.541013</ele>
        <time>2021-09-03T20:14:47.870Z</time>
      </trkpt>
      <trkpt lat="43.04012" lon="0.28307">
        <ele>470.97743</ele>
        <time>2021-09-03T20:14:50.161Z</time>
      </trkpt>
      <trkpt lat="43.04031" lon="0.28353">
        <ele>469.32677</ele>
        <time>2021-09-03T20:14:56.615Z</time>
      </trkpt>
      <trkpt lat="43.04134" lon="0.28512">
        <ele>460.526787</ele>
        <time>2021-09-03T20:15:19.269Z</time>
      </trkpt>
      <trkpt lat="43.04166" lon="0.28624">
        <ele>453.827906</ele>
        <time>2021-09-03T20:15:31.385Z</time>
      </trkpt>
      <trkpt lat="43.04238" lon="0.28742">
        <ele>445.651195</ele>
        <time>2021-09-03T20:15:47.157Z</time>
      </trkpt>
      <trkpt lat="43.04254" lon="0.28756">
        <ele>444.333624</ele>
        <time>2021-09-03T20:15:49.822Z</time>
      </trkpt>
      <trkpt lat="43.04259" lon="0.28765">
        <ele>443.754082</ele>
        <time>2021-09-03T20:15:51.011Z</time>
      </trkpt>
      <trkpt lat="43.04267" lon="0.28778">
        <ele>442.842872</ele>
        <time>2021-09-03T20:15:53.008Z</time>
      </trkpt>
      <trkpt lat="43.04361" lon="0.28832">
        <ele>437.483421</ele>
        <time>2021-09-03T20:16:08.708Z</time>
      </trkpt>
      <trkpt lat="43.04363" lon="0.28839">
        <ele>437.311945</ele>
        <time>2021-09-03T20:16:09.575Z</time>
      </trkpt>
      <trkpt lat="43.04359" lon="0.28844">
        <ele>437.128999</ele>
        <time>2021-09-03T20:16:10.497Z</time>
      </trkpt>
      <trkpt lat="43.04306" lon="0.28855">
        <ele>435.443269</ele>
        <time>2021-09-03T20:16:19.227Z</time>
      </trkpt>
      <trkpt lat="43.04299" lon="0.2886">
        <ele>435.193307</ele>
        <time>2021-09-03T20:16:20.527Z</time>
      </trkpt>
      <trkpt lat="43.04299" lon="0.28873">
        <ele>434.906185</ele>
        <time>2021-09-03T20:16:21.990Z</time>
      </trkpt>
      <trkpt lat="43.04395" lon="0.28952">
        <ele>437.515711</ele>
        <time>2021-09-03T20:16:52.168Z</time>
      </trkpt>
      <trkpt lat="43.04424" lon="0.2897">
        <ele>439.706627</ele>
        <time>2021-09-03T20:17:07.603Z</time>
      </trkpt>
      <trkpt lat="43.04426" lon="0.28971">
        <ele>439.841617</ele>
        <time>2021-09-03T20:17:08.596Z</time>
      </trkpt>
      <trkpt lat="43.04433" lon="0.28981">
        <ele>440.547689</ele>
        <time>2021-09-03T20:17:15.543Z</time>
      </trkpt>
      <trkpt lat="43.04434" lon="0.28988">
        <ele>440.86402</ele>
        <time>2021-09-03T20:17:18.463Z</time>
      </trkpt>
      <trkpt lat="43.04432" lon="0.28999">
        <ele>441.467258</ele>
        <time>2021-09-03T20:17:22.992Z</time>
      </trkpt>
      <trkpt lat="43.04429" lon="0.29015">
        <ele>442.272326</ele>
        <time>2021-09-03T20:17:29.673Z</time>
      </trkpt>
      <trkpt lat="43.04429" lon="0.29038">
        <ele>443.433658</ele>
        <time>2021-09-03T20:17:42.731Z</time>
      </trkpt>
      <trkpt lat="43.0443" lon="0.29052">
        <ele>444.161353</ele>
        <time>2021-09-03T20:17:48.782Z</time>
      </trkpt>
      <trkpt lat="43.04424" lon="0.29058">
        <ele>444.689777</ele>
        <time>2021-09-03T20:17:54.009Z</time>
      </trkpt>
      <trkpt lat="43.04395" lon="0.29035">
        <ele>448.211352</ele>
        <time>2021-09-03T20:18:19.839Z</time>
      </trkpt>
      <trkpt lat="43.04388" lon="0.29036">
        <ele>449.117185</ele>
        <time>2021-09-03T20:18:26.013Z</time>
      </trkpt>
      <trkpt lat="43.04387" lon="0.29066">
        <ele>451.960116</ele>
        <time>2021-09-03T20:18:44.540Z</time>
      </trkpt>
      <trkpt lat="43.04379" lon="0.29073">
        <ele>453.14339</ele>
        <time>2021-09-03T20:18:52.183Z</time>
      </trkpt>
      <trkpt lat="43.04368" lon="0.2905">
        <ele>455.675486</ele>
        <time>2021-09-03T20:19:12.367Z</time>
      </trkpt>
      <trkpt lat="43.04361" lon="0.29049">
        <ele>456.635575</ele>
        <time>2021-09-03T20:19:18.891Z</time>
      </trkpt>
      <trkpt lat="43.04348" lon="0.2908">
        <ele>460.005867</ele>
        <time>2021-09-03T20:19:45.895Z</time>
      </trkpt>
      <trkpt lat="43.04321" lon="0.29218">
        <ele>468.699536</ele>
        <time>2021-09-03T20:20:46.509Z</time>
      </trkpt>
      <trkpt lat="43.04316" lon="0.29265">
        <ele>468.536761</ele>
        <time>2021-09-03T20:20:58.440Z</time>
      </trkpt>
      <trkpt lat="43.04318" lon="0.29292">
        <ele>468.444703</ele>
        <time>2021-09-03T20:21:01.666Z</time>
      </trkpt>
      <trkpt lat="43.04323" lon="0.29369">
        <ele>468.181061</ele>
        <time>2021-09-03T20:21:11.473Z</time>
      </trkpt>
      <trkpt lat="43.04321" lon="0.29437">
        <ele>467.018057</ele>
        <time>2021-09-03T20:21:18.813Z</time>
      </trkpt>
      <trkpt lat="43.04331" lon="0.29477">
        <ele>465.200332</ele>
        <time>2021-09-03T20:21:23.252Z</time>
      </trkpt>
      <trkpt lat="43.04336" lon="0.29493">
        <ele>464.410388</ele>
        <time>2021-09-03T20:21:25.061Z</time>
      </trkpt>
      <trkpt lat="43.04342" lon="0.2952">
        <ele>463.192284</ele>
        <time>2021-09-03T20:21:28.199Z</time>
      </trkpt>
      <trkpt lat="43.04359" lon="0.29621">
        <ele>458.668496</ele>
        <time>2021-09-03T20:21:39.872Z</time>
      </trkpt>
      <trkpt lat="43.04365" lon="0.29645">
        <ele>457.563607</ele>
        <time>2021-09-03T20:21:42.851Z</time>
      </trkpt>
      <trkpt lat="43.04354" lon="0.2965">
        <ele>457.327862</ele>
        <time>2021-09-03T20:21:44.776Z</time>
      </trkpt>
      <trkpt lat="43.04296" lon="0.29655">
        <ele>457.69094</ele>
        <time>2021-09-03T20:21:56.937Z</time>
      </trkpt>
      <trkpt lat="43.04258" lon="0.2968">
        <ele>457.950991</ele>
        <time>2021-09-03T20:22:08.813Z</time>
      </trkpt>
      <trkpt lat="43.04255" lon="0.29686">
        <ele>457.986382</ele>
        <time>2021-09-03T20:22:10.226Z</time>
      </trkpt>
      <trkpt lat="43.04233" lon="0.29686">
        <ele>458.12012</ele>
        <time>2021-09-03T20:22:17.504Z</time>
      </trkpt>
      <trkpt lat="43.04168" lon="0.29666">
        <ele>459.07128</ele>
        <time>2021-09-03T20:22:40.894Z</time>
      </trkpt>
      <trkpt lat="43.0414" lon="0.29671">
        <ele>459.939261</ele>
        <time>2021-09-03T20:22:51.058Z</time>
      </trkpt>
      <trkpt lat="43.04114" lon="0.297">
        <ele>460.986606</ele>
        <time>2021-09-03T20:23:03.726Z</time>
      </trkpt>
      <trkpt lat="43.04064" lon="0.29776">
        <ele>463.305656</ele>
        <time>2021-09-03T20:23:30.630Z</time>
      </trkpt>
      <trkpt lat="43.03959" lon="0.29814">
        <ele>464.502838</ele>
        <time>2021-09-03T20:24:01.927Z</time>
      </trkpt>
      <trkpt lat="43.0393" lon="0.29837">
        <ele>464.695343</ele>
        <time>2021-09-03T20:24:09.629Z</time>
      </trkpt>
      <trkpt lat="43.03897" lon="0.29866">
        <ele>464.919989</ele>
        <time>2021-09-03T20:24:17.447Z</time>
      </trkpt>
      <trkpt lat="43.03841" lon="0.29895">
        <ele>464.571758</ele>
        <time>2021-09-03T20:24:28.799Z</time>
      </trkpt>
      <trkpt lat="43.03813" lon="0.29913">
        <ele>464.197169</ele>
        <time>2021-09-03T20:24:34.473Z</time>
      </trkpt>
      <trkpt lat="43.03788" lon="0.29929">
        <ele>463.869267</ele>
        <time>2021-09-03T20:24:39.392Z</time>
      </trkpt>
      <trkpt lat="43.03715" lon="0.29969">
        <ele>462.922723</ele>
        <time>2021-09-03T20:24:54.050Z</time>
      </trkpt>
      <trkpt lat="43.03697" lon="0.29995">
        <ele>462.895986</ele>
        <time>2021-09-03T20:24:59.132Z</time>
      </trkpt>
      <trkpt lat="43.03681" lon="0.30029">
        <ele>462.917745</ele>
        <time>2021-09-03T20:25:06.324Z</time>
      </trkpt>
      <trkpt lat="43.03664" lon="0.30047">
        <ele>462.93351</ele>
        <time>2021-09-03T20:25:10.956Z</time>
      </trkpt>
      <trkpt lat="43.03616" lon="0.30068">
        <ele>462.970791</ele>
        <time>2021-09-03T20:25:23.776Z</time>
      </trkpt>
      <trkpt lat="43.03567" lon="0.30101">
        <ele>463.011436</ele>
        <time>2021-09-03T20:25:36.560Z</time>
      </trkpt>
      <trkpt lat="43.03561" lon="0.30109">
        <ele>462.917914</ele>
        <time>2021-09-03T20:25:39.826Z</time>
      </trkpt>
      <trkpt lat="43.03558" lon="0.30117">
        <ele>462.833208</ele>
        <time>2021-09-03T20:25:41.141Z</time>
      </trkpt>
      <trkpt lat="43.03547" lon="0.30182">
        <ele>462.198182</ele>
        <time>2021-09-03T20:25:50.892Z</time>
      </trkpt>
      <trkpt lat="43.03537" lon="0.30214">
        <ele>461.861943</ele>
        <time>2021-09-03T20:25:55.683Z</time>
      </trkpt>
      <trkpt lat="43.03502" lon="0.30274">
        <ele>461.132883</ele>
        <time>2021-09-03T20:26:05.516Z</time>
      </trkpt>
      <trkpt lat="43.03479" lon="0.30296">
        <ele>460.776195</ele>
        <time>2021-09-03T20:26:10.381Z</time>
      </trkpt>
      <trkpt lat="43.03471" lon="0.30297">
        <ele>460.678969</ele>
        <time>2021-09-03T20:26:11.548Z</time>
      </trkpt>
      <trkpt lat="43.03468" lon="0.30302">
        <ele>460.643227</ele>
        <time>2021-09-03T20:26:12.319Z</time>
      </trkpt>
      <trkpt lat="43.03456" lon="0.30307">
        <ele>460.543828</ele>
        <time>2021-09-03T20:26:14.555Z</time>
      </trkpt>
      <trkpt lat="43.03443" lon="0.30304">
        <ele>460.446715</ele>
        <time>2021-09-03T20:26:16.772Z</time>
      </trkpt>
      <trkpt lat="43.03421" lon="0.30296">
        <ele>460.278149</ele>
        <time>2021-09-03T20:26:20.680Z</time>
      </trkpt>
      <trkpt lat="43.03407" lon="0.30296">
        <ele>460.173767</ele>
        <time>2021-09-03T20:26:23.174Z</time>
      </trkpt>
      <trkpt lat="43.03369" lon="0.30321">
        <ele>459.857721</ele>
        <time>2021-09-03T20:26:31.166Z</time>
      </trkpt>
      <trkpt lat="43.03349" lon="0.30326">
        <ele>459.708435</ele>
        <time>2021-09-03T20:26:35.147Z</time>
      </trkpt>
      <trkpt lat="43.03339" lon="0.30326">
        <ele>459.634551</ele>
        <time>2021-09-03T20:26:37.112Z</time>
      </trkpt>
      <trkpt lat="43.03335" lon="0.30325">
        <ele>459.603963</ele>
        <time>2021-09-03T20:26:38.155Z</time>
      </trkpt>
      <trkpt lat="43.03289" lon="0.30309">
        <ele>459.537395</ele>
        <time>2021-09-03T20:26:51.813Z</time>
      </trkpt>
      <trkpt lat="43.03267" lon="0.3031">
        <ele>459.9212</ele>
        <time>2021-09-03T20:26:59.294Z</time>
      </trkpt>
      <trkpt lat="43.03218" lon="0.30349">
        <ele>460.913317</ele>
        <time>2021-09-03T20:27:17.462Z</time>
      </trkpt>
      <trkpt lat="43.03199" lon="0.30375">
        <ele>461.379921</ele>
        <time>2021-09-03T20:27:25.489Z</time>
      </trkpt>
      <trkpt lat="43.03192" lon="0.30393">
        <ele>461.644563</ele>
        <time>2021-09-03T20:27:31.821Z</time>
      </trkpt>
      <trkpt lat="43.03201" lon="0.30402">
        <ele>461.84874</ele>
        <time>2021-09-03T20:27:34.199Z</time>
      </trkpt>
      <trkpt lat="43.0322" lon="0.30435">
        <ele>462.380805</ele>
        <time>2021-09-03T20:27:43.168Z</time>
      </trkpt>
      <trkpt lat="43.03227" lon="0.30474">
        <ele>462.102431</ele>
        <time>2021-09-03T20:27:50.977Z</time>
      </trkpt>
      <trkpt lat="43.03226" lon="0.30627">
        <ele>460.488685</ele>
        <time>2021-09-03T20:28:11.292Z</time>
      </trkpt>
      <trkpt lat="43.0321" lon="0.3077">
        <ele>458.093819</ele>
        <time>2021-09-03T20:28:28.386Z</time>
      </trkpt>
      <trkpt lat="43.03182" lon="0.30833">
        <ele>456.571608</ele>
        <time>2021-09-03T20:28:37.128Z</time>
      </trkpt>
      <trkpt lat="43.0318" lon="0.30862">
        <ele>455.963892</ele>
        <time>2021-09-03T20:28:40.755Z</time>
      </trkpt>
      <trkpt lat="43.03188" lon="0.30928">
        <ele>454.729833</ele>
        <time>2021-09-03T20:28:49.120Z</time>
      </trkpt>
      <trkpt lat="43.03192" lon="0.30966">
        <ele>454.561174</ele>
        <time>2021-09-03T20:28:54.211Z</time>
      </trkpt>
      <trkpt lat="43.03193" lon="0.30976">
        <ele>454.514234</ele>
        <time>2021-09-03T20:28:55.604Z</time>
      </trkpt>
      <trkpt lat="43.03199" lon="0.31022">
        <ele>454.307503</ele>
        <time>2021-09-03T20:29:02.113Z</time>
      </trkpt>
      <trkpt lat="43.0322" lon="0.31124">
        <ele>453.842128</ele>
        <time>2021-09-03T20:29:18.951Z</time>
      </trkpt>
      <trkpt lat="43.03254" lon="0.31208">
        <ele>454.439734</ele>
        <time>2021-09-03T20:29:36.532Z</time>
      </trkpt>
      <trkpt lat="43.03258" lon="0.31222">
        <ele>454.61457</ele>
        <time>2021-09-03T20:29:40.328Z</time>
      </trkpt>
      <trkpt lat="43.03264" lon="0.31269">
        <ele>455.208633</ele>
        <time>2021-09-03T20:29:50.611Z</time>
      </trkpt>
      <trkpt lat="43.03261" lon="0.31284">
        <ele>455.401334</ele>
        <time>2021-09-03T20:29:53.375Z</time>
      </trkpt>
      <trkpt lat="43.03233" lon="0.31303">
        <ele>455.93214</ele>
        <time>2021-09-03T20:30:03.411Z</time>
      </trkpt>
      <trkpt lat="43.03224" lon="0.31317">
        <ele>456.16224</ele>
        <time>2021-09-03T20:30:06.970Z</time>
      </trkpt>
      <trkpt lat="43.03215" lon="0.31344">
        <ele>456.536731</ele>
        <time>2021-09-03T20:30:14.730Z</time>
      </trkpt>
      <trkpt lat="43.03214" lon="0.31356">
        <ele>456.685501</ele>
        <time>2021-09-03T20:30:16.738Z</time>
      </trkpt>
      <trkpt lat="43.03217" lon="0.31381">
        <ele>457.076289</ele>
        <time>2021-09-03T20:30:23.706Z</time>
      </trkpt>
      <trkpt lat="43.03222" lon="0.31444">
        <ele>458.073422</ele>
        <time>2021-09-03T20:30:37.840Z</time>
      </trkpt>
      <trkpt lat="43.0322" lon="0.3155">
        <ele>459.756338</ele>
        <time>2021-09-03T20:31:01.792Z</time>
      </trkpt>
      <trkpt lat="43.03211" lon="0.31643">
        <ele>460.949341</ele>
        <time>2021-09-03T20:31:23.064Z</time>
      </trkpt>
      <trkpt lat="43.03177" lon="0.31823">
        <ele>462.444052</ele>
        <time>2021-09-03T20:31:57.689Z</time>
      </trkpt>
      <trkpt lat="43.03184" lon="0.31924">
        <ele>462.617172</ele>
        <time>2021-09-03T20:32:16.743Z</time>
      </trkpt>
      <trkpt lat="43.03185" lon="0.3194">
        <ele>462.617172</ele>
        <time>2021-09-03T20:32:19.479Z</time>
      </trkpt>
      <trkpt lat="43.03187" lon="0.31975">
        <ele>462.617172</ele>
        <time>2021-09-03T20:32:26.377Z</time>
      </trkpt>
      <trkpt lat="43.03186" lon="0.31985">
        <ele>462.617172</ele>
        <time>2021-09-03T20:32:27.906Z</time>
      </trkpt>
      <trkpt lat="43.03194" lon="0.31992">
        <ele>462.617172</ele>
        <time>2021-09-03T20:32:31.659Z</time>
      </trkpt>
      <trkpt lat="43.03217" lon="0.32028">
        <ele>462.617172</ele>
        <time>2021-09-03T20:32:43.014Z</time>
      </trkpt>
      <trkpt lat="43.03199" lon="0.32094">
        <ele>462.617172</ele>
        <time>2021-09-03T20:32:59.894Z</time>
      </trkpt>
    </trkseg>
  </trk>
</gpx>